AFL1731 UHPP-UUEE
Flight info
| Callsign | AFL1731 |
|---|---|
| Flight time | 7h 53m |
| Altitude | 34000 |
| Route | K0904F320 DCT BAKEN A812 TEMGA/K0907F340 A812 OLEGA T411 LABAR M131 PINEG/K0907F360 M131 AMEGO P65 ROMTA DCT |
| Aircraft | B77W/H-VGDW/C |
Departure
| Time | 2026-04-22 01:15 |
|---|---|
| Airport | Yelizovo Airport (UHPP) |
Arrival
| Time | 2026-04-22 09:08 |
|---|---|
| Airport | Sheremetyevo International Airport (UUEE) |
| Time | Latitude | Longitude | Altitude | Speed | Heading |
|---|---|---|---|---|---|
| 2026-04-22 00:12 | 53.18255 | 158.43378 | 222 ft | 0 kts | 219° |
| 2026-04-22 01:01 | 53.18256 | 158.43380 | 230 ft | 2 kts | 219° |
| 2026-04-22 01:01 | 53.18277 | 158.43407 | 222 ft | 4 kts | 218° |
| 2026-04-22 01:01 | 53.18293 | 158.43428 | 223 ft | 4 kts | 207° |
| 2026-04-22 01:02 | 53.18318 | 158.43439 | 223 ft | 4 kts | 171° |
| 2026-04-22 01:02 | 53.18341 | 158.43424 | 223 ft | 4 kts | 136° |
| 2026-04-22 01:02 | 53.18350 | 158.43409 | 223 ft | 0 kts | 125° |
| 2026-04-22 01:06 | 53.18344 | 158.43423 | 223 ft | 8 kts | 125° |
| 2026-04-22 01:07 | 53.18288 | 158.43524 | 230 ft | 13 kts | 140° |
| 2026-04-22 01:07 | 53.18242 | 158.43643 | 226 ft | 13 kts | 94° |
| 2026-04-22 01:07 | 53.18269 | 158.43783 | 163 ft | 13 kts | 64° |
| 2026-04-22 01:07 | 53.18305 | 158.43918 | 125 ft | 13 kts | 66° |
| 2026-04-22 01:08 | 53.18296 | 158.44051 | 127 ft | 13 kts | 131° |
| 2026-04-22 01:08 | 53.18231 | 158.44153 | 124 ft | 13 kts | 143° |
| 2026-04-22 01:08 | 53.18143 | 158.44228 | 126 ft | 16 kts | 157° |
| 2026-04-22 01:08 | 53.18016 | 158.44316 | 124 ft | 21 kts | 158° |
| 2026-04-22 01:09 | 53.17880 | 158.44408 | 126 ft | 21 kts | 158° |
| 2026-04-22 01:09 | 53.17745 | 158.44500 | 125 ft | 21 kts | 158° |
| 2026-04-22 01:09 | 53.17609 | 158.44597 | 129 ft | 21 kts | 156° |
| 2026-04-22 01:09 | 53.17474 | 158.44694 | 133 ft | 21 kts | 157° |
| 2026-04-22 01:10 | 53.17338 | 158.44785 | 126 ft | 21 kts | 158° |
| 2026-04-22 01:10 | 53.17202 | 158.44881 | 131 ft | 21 kts | 157° |
| 2026-04-22 01:10 | 53.17068 | 158.44976 | 124 ft | 21 kts | 158° |
| 2026-04-22 01:10 | 53.16931 | 158.45069 | 127 ft | 21 kts | 158° |
| 2026-04-22 01:11 | 53.16796 | 158.45161 | 132 ft | 21 kts | 158° |
| 2026-04-22 01:11 | 53.16660 | 158.45255 | 127 ft | 21 kts | 157° |
| 2026-04-22 01:11 | 53.16523 | 158.45350 | 125 ft | 21 kts | 157° |
| 2026-04-22 01:11 | 53.16389 | 158.45444 | 124 ft | 21 kts | 157° |
| 2026-04-22 01:12 | 53.16252 | 158.45539 | 125 ft | 21 kts | 157° |
| 2026-04-22 01:12 | 53.16118 | 158.45631 | 125 ft | 21 kts | 158° |
| 2026-04-22 01:12 | 53.15982 | 158.45725 | 127 ft | 21 kts | 157° |
| 2026-04-22 01:12 | 53.15845 | 158.45819 | 132 ft | 21 kts | 158° |
| 2026-04-22 01:13 | 53.15720 | 158.45901 | 132 ft | 18 kts | 164° |
| 2026-04-22 01:13 | 53.15598 | 158.45923 | 127 ft | 16 kts | 179° |
| 2026-04-22 01:13 | 53.15546 | 158.45982 | 130 ft | 7 kts | 68° |
| 2026-04-22 01:13 | 53.15587 | 158.45993 | 122 ft | 7 kts | 346° |
| 2026-04-22 01:14 | 53.15631 | 158.45965 | 127 ft | 7 kts | 337° |
| 2026-04-22 01:14 | 53.15640 | 158.45959 | 127 ft | 0 kts | 337° |
| 2026-04-22 01:14 | 53.15747 | 158.45884 | 133 ft | 50 kts | 337° |
| 2026-04-22 01:14 | 53.16311 | 158.45494 | 125 ft | 124 kts | 337° |
| 2026-04-22 01:15 | 53.17314 | 158.44795 | 134 ft | 185 kts | 337° |
| 2026-04-22 01:15 | 53.18567 | 158.43935 | 468 ft | 200 kts | 335° |
| 2026-04-22 01:15 | 53.19826 | 158.43010 | 1143 ft | 196 kts | 334° |
| 2026-04-22 01:15 | 53.21085 | 158.42084 | 1803 ft | 198 kts | 336° |
| 2026-04-22 01:16 | 53.22357 | 158.41209 | 2334 ft | 201 kts | 337° |
| 2026-04-22 01:16 | 53.23656 | 158.40319 | 2797 ft | 201 kts | 338° |
| 2026-04-22 01:16 | 53.24948 | 158.39434 | 3217 ft | 202 kts | 338° |
| 2026-04-22 01:16 | 53.26296 | 158.38511 | 3419 ft | 217 kts | 338° |
| 2026-04-22 01:17 | 53.27748 | 158.37511 | 3672 ft | 233 kts | 339° |
| 2026-04-22 01:17 | 53.29293 | 158.36446 | 4082 ft | 243 kts | 339° |
| 2026-04-22 01:17 | 53.30865 | 158.35360 | 4583 ft | 252 kts | 340° |
| 2026-04-22 01:17 | 53.32512 | 158.34219 | 5125 ft | 259 kts | 339° |
| 2026-04-22 01:18 | 53.34206 | 158.33040 | 5704 ft | 265 kts | 340° |
| 2026-04-22 01:18 | 53.35913 | 158.31781 | 6288 ft | 271 kts | 334° |
| 2026-04-22 01:18 | 53.37552 | 158.30127 | 6868 ft | 277 kts | 330° |
| 2026-04-22 01:18 | 53.39145 | 158.28370 | 7513 ft | 279 kts | 329° |
| 2026-04-22 01:19 | 53.40771 | 158.26565 | 8147 ft | 281 kts | 329° |
| 2026-04-22 01:19 | 53.42427 | 158.24743 | 8757 ft | 284 kts | 330° |
| 2026-04-22 01:19 | 53.44082 | 158.22936 | 9345 ft | 287 kts | 330° |
| 2026-04-22 01:19 | 53.45775 | 158.21101 | 9967 ft | 290 kts | 330° |
| 2026-04-22 01:20 | 53.47473 | 158.19268 | 10394 ft | 299 kts | 330° |
| 2026-04-22 01:20 | 53.49290 | 158.17315 | 10544 ft | 319 kts | 330° |
| 2026-04-22 01:20 | 53.51228 | 158.15235 | 10705 ft | 339 kts | 330° |
| 2026-04-22 01:20 | 53.53258 | 158.13055 | 10869 ft | 359 kts | 330° |
| 2026-04-22 01:21 | 53.55409 | 158.10741 | 11244 ft | 372 kts | 329° |
| 2026-04-22 01:21 | 53.57604 | 158.08373 | 11829 ft | 380 kts | 329° |
| 2026-04-22 01:21 | 53.59857 | 158.05941 | 12572 ft | 384 kts | 329° |
| 2026-04-22 01:21 | 53.62095 | 158.03523 | 13392 ft | 387 kts | 329° |
| 2026-04-22 01:22 | 53.64379 | 158.01056 | 14144 ft | 390 kts | 329° |
| 2026-04-22 01:22 | 53.66687 | 157.98579 | 14842 ft | 393 kts | 331° |
| 2026-04-22 01:22 | 53.69030 | 157.96274 | 15570 ft | 395 kts | 333° |
| 2026-04-22 01:22 | 53.71437 | 157.94020 | 16307 ft | 397 kts | 333° |
| 2026-04-22 01:23 | 53.73867 | 157.91739 | 17032 ft | 400 kts | 333° |
| 2026-04-22 01:23 | 53.76304 | 157.89411 | 17744 ft | 403 kts | 333° |
| 2026-04-22 01:23 | 53.78750 | 157.87057 | 18433 ft | 406 kts | 333° |
| 2026-04-22 01:23 | 53.81185 | 157.84699 | 19028 ft | 408 kts | 332° |
| 2026-04-22 01:24 | 53.83668 | 157.82279 | 19644 ft | 411 kts | 332° |
| 2026-04-22 01:24 | 53.86172 | 157.79830 | 20209 ft | 415 kts | 332° |
| 2026-04-22 01:24 | 53.88655 | 157.77402 | 20782 ft | 418 kts | 332° |
| 2026-04-22 01:24 | 53.91204 | 157.74906 | 21370 ft | 421 kts | 332° |
| 2026-04-22 01:25 | 53.93720 | 157.72437 | 21930 ft | 424 kts | 332° |
| 2026-04-22 01:25 | 53.96294 | 157.69908 | 22469 ft | 427 kts | 332° |
| 2026-04-22 01:25 | 53.98886 | 157.67361 | 23010 ft | 430 kts | 332° |
| 2026-04-22 01:25 | 54.01460 | 157.64825 | 23553 ft | 433 kts | 332° |
| 2026-04-22 01:26 | 54.04090 | 157.62231 | 24007 ft | 436 kts | 332° |
| 2026-04-22 01:26 | 54.06734 | 157.59623 | 24466 ft | 439 kts | 332° |
| 2026-04-22 01:26 | 54.09346 | 157.57042 | 24914 ft | 441 kts | 332° |
| 2026-04-22 01:26 | 54.12033 | 157.54384 | 25350 ft | 443 kts | 332° |
| 2026-04-22 01:27 | 54.14713 | 157.51738 | 25772 ft | 446 kts | 332° |
| 2026-04-22 01:27 | 54.17379 | 157.49104 | 26181 ft | 448 kts | 332° |
| 2026-04-22 01:27 | 54.20092 | 157.46420 | 26577 ft | 451 kts | 332° |
| 2026-04-22 01:27 | 54.22831 | 157.43709 | 26974 ft | 453 kts | 332° |
| 2026-04-22 01:28 | 54.25537 | 157.41025 | 27330 ft | 456 kts | 332° |
| 2026-04-22 01:28 | 54.28289 | 157.38290 | 27733 ft | 458 kts | 332° |
| 2026-04-22 01:28 | 54.31055 | 157.35537 | 28106 ft | 460 kts | 332° |
| 2026-04-22 01:28 | 54.33807 | 157.32793 | 28454 ft | 462 kts | 332° |
| 2026-04-22 01:29 | 54.36594 | 157.30008 | 28784 ft | 464 kts | 332° |
| 2026-04-22 01:29 | 54.39402 | 157.27199 | 29116 ft | 466 kts | 332° |
| 2026-04-22 01:29 | 54.42220 | 157.24376 | 29432 ft | 468 kts | 332° |
| 2026-04-22 01:29 | 54.45047 | 157.21540 | 29721 ft | 470 kts | 332° |
| 2026-04-22 01:30 | 54.47863 | 157.18711 | 30018 ft | 471 kts | 332° |
| 2026-04-22 01:30 | 54.50696 | 157.15858 | 30366 ft | 471 kts | 332° |
| 2026-04-22 01:30 | 54.53524 | 157.13005 | 30709 ft | 469 kts | 331° |
| 2026-04-22 01:30 | 54.56314 | 157.10187 | 31021 ft | 469 kts | 331° |
| 2026-04-22 01:31 | 54.59146 | 157.07322 | 31316 ft | 468 kts | 331° |
| 2026-04-22 01:31 | 54.61927 | 157.04506 | 31601 ft | 468 kts | 331° |
| 2026-04-22 01:31 | 54.64751 | 157.01640 | 31883 ft | 468 kts | 331° |
| 2026-04-22 01:31 | 54.67571 | 156.98779 | 31957 ft | 471 kts | 331° |
| 2026-04-22 01:32 | 54.73212 | 156.93056 | 32012 ft | 470 kts | 331° |
| 2026-04-22 01:32 | 54.78795 | 156.87372 | 32009 ft | 466 kts | 331° |
| 2026-04-22 01:33 | 54.84370 | 156.81677 | 32013 ft | 465 kts | 331° |
| 2026-04-22 01:33 | 54.89935 | 156.75955 | 32007 ft | 465 kts | 330° |
| 2026-04-22 01:34 | 54.95511 | 156.70174 | 32017 ft | 466 kts | 330° |
| 2026-04-22 01:34 | 55.01070 | 156.64408 | 32020 ft | 467 kts | 331° |
| 2026-04-22 01:35 | 55.06671 | 156.58609 | 32018 ft | 467 kts | 331° |
| 2026-04-22 01:35 | 55.12249 | 156.52814 | 32017 ft | 468 kts | 331° |
| 2026-04-22 01:36 | 55.17863 | 156.46957 | 32023 ft | 468 kts | 331° |
| 2026-04-22 01:36 | 55.23433 | 156.41123 | 32029 ft | 468 kts | 330° |
| 2026-04-22 01:37 | 55.29006 | 156.35271 | 32035 ft | 468 kts | 330° |
| 2026-04-22 01:37 | 55.34583 | 156.29397 | 32028 ft | 467 kts | 330° |
| 2026-04-22 01:38 | 55.40150 | 156.23513 | 32042 ft | 467 kts | 330° |
| 2026-04-22 01:38 | 55.45725 | 156.17551 | 32045 ft | 467 kts | 330° |
| 2026-04-22 01:39 | 55.51252 | 156.11620 | 32052 ft | 467 kts | 330° |
| 2026-04-22 01:39 | 55.56790 | 156.05681 | 32056 ft | 467 kts | 330° |
| 2026-04-22 01:40 | 55.62352 | 155.99700 | 32055 ft | 466 kts | 330° |
| 2026-04-22 01:40 | 55.67869 | 155.93746 | 32066 ft | 466 kts | 330° |
| 2026-04-22 01:41 | 55.73427 | 155.87725 | 32067 ft | 466 kts | 330° |
| 2026-04-22 01:41 | 55.78949 | 155.81723 | 32067 ft | 466 kts | 330° |
| 2026-04-22 01:42 | 55.84461 | 155.75714 | 32073 ft | 466 kts | 330° |
| 2026-04-22 01:42 | 55.89956 | 155.69702 | 32067 ft | 466 kts | 330° |
| 2026-04-22 01:43 | 55.95474 | 155.63644 | 32083 ft | 465 kts | 330° |
| 2026-04-22 01:43 | 56.01004 | 155.57552 | 32082 ft | 465 kts | 330° |
| 2026-04-22 01:44 | 56.06494 | 155.51484 | 32083 ft | 465 kts | 330° |
| 2026-04-22 01:44 | 56.11978 | 155.45402 | 32088 ft | 465 kts | 330° |
| 2026-04-22 01:45 | 56.17493 | 155.39267 | 32091 ft | 465 kts | 330° |
| 2026-04-22 01:45 | 56.22994 | 155.33202 | 32094 ft | 465 kts | 331° |
| 2026-04-22 01:46 | 56.28500 | 155.27186 | 32085 ft | 465 kts | 331° |
| 2026-04-22 01:46 | 56.34040 | 155.21109 | 32098 ft | 464 kts | 330° |
| 2026-04-22 01:47 | 56.39535 | 155.15049 | 32100 ft | 464 kts | 330° |
| 2026-04-22 01:47 | 56.45035 | 155.08958 | 32107 ft | 464 kts | 330° |
| 2026-04-22 01:48 | 56.50547 | 155.02831 | 32106 ft | 464 kts | 330° |
| 2026-04-22 01:48 | 56.56031 | 154.96715 | 32102 ft | 464 kts | 330° |
| 2026-04-22 01:49 | 56.61530 | 154.90562 | 32116 ft | 463 kts | 330° |
| 2026-04-22 01:49 | 56.66993 | 154.84426 | 32112 ft | 464 kts | 330° |
| 2026-04-22 01:50 | 56.72469 | 154.78256 | 32121 ft | 464 kts | 330° |
| 2026-04-22 01:50 | 56.77986 | 154.72018 | 32121 ft | 464 kts | 330° |
| 2026-04-22 01:51 | 56.83442 | 154.65827 | 32115 ft | 464 kts | 330° |
| 2026-04-22 01:51 | 56.88934 | 154.59574 | 32129 ft | 464 kts | 330° |
| 2026-04-22 01:52 | 56.94382 | 154.53348 | 32130 ft | 464 kts | 330° |
| 2026-04-22 01:52 | 56.99873 | 154.47053 | 32132 ft | 463 kts | 330° |
| 2026-04-22 01:53 | 57.05308 | 154.40799 | 32132 ft | 463 kts | 330° |
| 2026-04-22 01:53 | 57.10785 | 154.34473 | 32120 ft | 461 kts | 330° |
| 2026-04-22 01:54 | 57.16191 | 154.28214 | 32148 ft | 464 kts | 330° |
| 2026-04-22 01:54 | 57.21685 | 154.21814 | 32147 ft | 470 kts | 329° |
| 2026-04-22 01:55 | 57.27180 | 154.15292 | 32150 ft | 471 kts | 329° |
| 2026-04-22 01:55 | 57.32651 | 154.08749 | 32152 ft | 463 kts | 329° |
| 2026-04-22 01:56 | 57.38040 | 154.02297 | 32159 ft | 464 kts | 329° |
| 2026-04-22 01:56 | 57.43464 | 153.95789 | 32160 ft | 465 kts | 329° |
| 2026-04-22 01:57 | 57.48880 | 153.89268 | 32160 ft | 465 kts | 329° |
| 2026-04-22 01:57 | 57.54338 | 153.82671 | 32163 ft | 465 kts | 329° |
| 2026-04-22 01:58 | 57.59747 | 153.76109 | 32169 ft | 466 kts | 329° |
| 2026-04-22 01:58 | 57.65157 | 153.69522 | 32175 ft | 466 kts | 329° |
| 2026-04-22 01:59 | 57.70601 | 153.62871 | 32167 ft | 465 kts | 329° |
| 2026-04-22 01:59 | 57.75991 | 153.56263 | 32182 ft | 465 kts | 328° |
| 2026-04-22 02:00 | 57.81412 | 153.49596 | 32182 ft | 465 kts | 329° |
| 2026-04-22 02:00 | 57.86808 | 153.42958 | 32188 ft | 465 kts | 329° |
| 2026-04-22 02:01 | 57.92215 | 153.36288 | 32184 ft | 465 kts | 329° |
| 2026-04-22 02:01 | 57.97613 | 153.29604 | 32191 ft | 465 kts | 328° |
| 2026-04-22 02:02 | 58.03010 | 153.22895 | 32200 ft | 465 kts | 328° |
| 2026-04-22 02:02 | 58.07513 | 153.17278 | 32198 ft | 466 kts | 328° |
| 2026-04-22 02:03 | 58.12934 | 153.10492 | 32206 ft | 466 kts | 328° |
| 2026-04-22 02:03 | 58.18320 | 153.03729 | 32194 ft | 466 kts | 328° |
| 2026-04-22 02:04 | 58.26281 | 152.93102 | 32211 ft | 466 kts | 326° |
| 2026-04-22 02:05 | 58.31561 | 152.86022 | 32214 ft | 466 kts | 327° |
| 2026-04-22 02:05 | 58.36888 | 152.78907 | 32212 ft | 466 kts | 327° |
| 2026-04-22 02:06 | 58.42182 | 152.71802 | 32209 ft | 466 kts | 326° |
| 2026-04-22 02:06 | 58.47478 | 152.64658 | 32219 ft | 466 kts | 326° |
| 2026-04-22 02:07 | 58.52746 | 152.57526 | 32216 ft | 466 kts | 326° |
| 2026-04-22 02:07 | 58.58049 | 152.50325 | 32215 ft | 466 kts | 327° |
| 2026-04-22 02:08 | 58.63422 | 152.43404 | 32228 ft | 466 kts | 328° |
| 2026-04-22 02:08 | 58.68850 | 152.36516 | 32217 ft | 466 kts | 328° |
| 2026-04-22 02:09 | 58.74225 | 152.29586 | 32215 ft | 466 kts | 327° |
| 2026-04-22 02:09 | 58.79589 | 152.22612 | 32218 ft | 466 kts | 327° |
| 2026-04-22 02:10 | 58.84947 | 152.15614 | 32218 ft | 466 kts | 327° |
| 2026-04-22 02:10 | 58.90307 | 152.08593 | 32205 ft | 466 kts | 327° |
| 2026-04-22 02:11 | 58.95666 | 152.01548 | 32214 ft | 466 kts | 327° |
| 2026-04-22 02:11 | 59.01030 | 151.94467 | 32209 ft | 466 kts | 327° |
| 2026-04-22 02:12 | 59.06422 | 151.87328 | 32216 ft | 466 kts | 327° |
| 2026-04-22 02:12 | 59.11778 | 151.80218 | 32214 ft | 466 kts | 327° |
| 2026-04-22 02:13 | 59.17136 | 151.73135 | 32209 ft | 466 kts | 327° |
| 2026-04-22 02:13 | 59.22487 | 151.66034 | 32215 ft | 466 kts | 327° |
| 2026-04-22 02:14 | 59.27866 | 151.58864 | 32212 ft | 466 kts | 327° |
| 2026-04-22 02:14 | 59.33204 | 151.51724 | 32212 ft | 466 kts | 327° |
| 2026-04-22 02:15 | 59.38547 | 151.44605 | 32209 ft | 466 kts | 327° |
| 2026-04-22 02:15 | 59.43925 | 151.37421 | 32213 ft | 466 kts | 327° |
| 2026-04-22 02:16 | 59.49263 | 151.30257 | 32209 ft | 466 kts | 326° |
| 2026-04-22 02:16 | 59.54626 | 151.23029 | 32210 ft | 466 kts | 326° |
| 2026-04-22 02:17 | 59.59959 | 151.15813 | 32208 ft | 466 kts | 326° |
| 2026-04-22 02:17 | 59.65289 | 151.08513 | 32203 ft | 466 kts | 325° |
| 2026-04-22 02:18 | 59.70568 | 151.01058 | 32195 ft | 467 kts | 325° |
| 2026-04-22 02:18 | 59.75856 | 150.93554 | 32194 ft | 467 kts | 325° |
| 2026-04-22 02:19 | 59.81132 | 150.86068 | 32190 ft | 468 kts | 325° |
| 2026-04-22 02:19 | 59.86449 | 150.78504 | 32176 ft | 468 kts | 325° |
| 2026-04-22 02:20 | 59.91717 | 150.70986 | 32183 ft | 467 kts | 325° |
| 2026-04-22 02:20 | 59.97072 | 150.63677 | 32189 ft | 467 kts | 326° |
| 2026-04-22 02:21 | 60.02483 | 150.56387 | 32181 ft | 467 kts | 326° |
| 2026-04-22 02:21 | 60.07835 | 150.49091 | 32190 ft | 467 kts | 326° |
| 2026-04-22 02:22 | 60.13195 | 150.41737 | 32182 ft | 468 kts | 326° |
| 2026-04-22 02:22 | 60.18580 | 150.34328 | 32192 ft | 468 kts | 326° |
| 2026-04-22 02:23 | 60.23928 | 150.26957 | 32194 ft | 468 kts | 326° |
| 2026-04-22 02:23 | 60.29294 | 150.19532 | 32204 ft | 469 kts | 326° |
| 2026-04-22 02:24 | 60.34682 | 150.12045 | 32204 ft | 469 kts | 326° |
| 2026-04-22 02:24 | 60.40036 | 150.04586 | 32212 ft | 469 kts | 325° |
| 2026-04-22 02:25 | 60.45422 | 149.97049 | 32225 ft | 469 kts | 325° |
| 2026-04-22 02:25 | 60.50763 | 149.89526 | 32233 ft | 469 kts | 325° |
| 2026-04-22 02:26 | 60.56095 | 149.81983 | 32231 ft | 469 kts | 325° |
| 2026-04-22 02:26 | 60.61468 | 149.74355 | 32229 ft | 469 kts | 325° |
| 2026-04-22 02:27 | 60.66782 | 149.66781 | 32224 ft | 469 kts | 325° |
| 2026-04-22 02:27 | 60.72154 | 149.59092 | 32233 ft | 470 kts | 325° |
| 2026-04-22 02:28 | 60.77484 | 149.51432 | 32232 ft | 471 kts | 325° |
| 2026-04-22 02:28 | 60.82841 | 149.43701 | 32228 ft | 472 kts | 325° |
| 2026-04-22 02:29 | 60.88223 | 149.35900 | 32229 ft | 472 kts | 325° |
| 2026-04-22 02:29 | 60.93559 | 149.28134 | 32222 ft | 471 kts | 324° |
| 2026-04-22 02:30 | 60.98894 | 149.20338 | 32228 ft | 471 kts | 324° |
| 2026-04-22 02:30 | 61.04235 | 149.12497 | 32223 ft | 470 kts | 324° |
| 2026-04-22 02:31 | 61.09571 | 149.04637 | 32228 ft | 470 kts | 324° |
| 2026-04-22 02:31 | 61.14864 | 148.96805 | 32228 ft | 470 kts | 324° |
| 2026-04-22 02:32 | 61.20185 | 148.88903 | 32244 ft | 471 kts | 324° |
| 2026-04-22 02:32 | 61.25541 | 148.80921 | 32248 ft | 472 kts | 324° |
| 2026-04-22 02:33 | 61.30865 | 148.72954 | 32254 ft | 473 kts | 324° |
| 2026-04-22 02:33 | 61.36190 | 148.64951 | 32234 ft | 474 kts | 324° |
| 2026-04-22 02:34 | 61.41533 | 148.56884 | 32249 ft | 474 kts | 324° |
| 2026-04-22 02:34 | 61.46884 | 148.48776 | 32247 ft | 474 kts | 324° |
| 2026-04-22 02:35 | 61.52231 | 148.40634 | 32245 ft | 474 kts | 324° |
| 2026-04-22 02:35 | 61.57548 | 148.32467 | 32248 ft | 474 kts | 324° |
| 2026-04-22 02:36 | 61.62848 | 148.24278 | 32237 ft | 474 kts | 324° |
| 2026-04-22 02:36 | 61.68171 | 148.16019 | 32240 ft | 474 kts | 324° |
| 2026-04-22 02:37 | 61.73457 | 148.07790 | 32234 ft | 474 kts | 324° |
| 2026-04-22 02:37 | 61.78762 | 147.99493 | 32247 ft | 474 kts | 323° |
| 2026-04-22 02:38 | 61.84035 | 147.91213 | 32249 ft | 473 kts | 323° |
| 2026-04-22 02:38 | 61.89338 | 147.82844 | 32239 ft | 473 kts | 323° |
| 2026-04-22 02:39 | 61.94597 | 147.74510 | 32242 ft | 474 kts | 323° |
| 2026-04-22 02:39 | 61.99865 | 147.66122 | 32237 ft | 474 kts | 323° |
| 2026-04-22 02:40 | 62.05152 | 147.57672 | 32242 ft | 474 kts | 323° |
| 2026-04-22 02:40 | 62.10440 | 147.49183 | 32244 ft | 474 kts | 323° |
| 2026-04-22 02:41 | 62.15680 | 147.40731 | 32240 ft | 474 kts | 323° |
| 2026-04-22 02:41 | 62.20934 | 147.32217 | 32243 ft | 474 kts | 323° |
| 2026-04-22 02:42 | 62.26198 | 147.23649 | 32247 ft | 474 kts | 323° |
| 2026-04-22 02:42 | 62.31432 | 147.15092 | 32240 ft | 474 kts | 323° |
| 2026-04-22 02:43 | 62.36650 | 147.06524 | 32243 ft | 473 kts | 323° |
| 2026-04-22 02:43 | 62.41908 | 146.97849 | 32248 ft | 473 kts | 323° |
| 2026-04-22 02:44 | 62.47122 | 146.89210 | 32247 ft | 473 kts | 323° |
| 2026-04-22 02:44 | 62.52336 | 146.80532 | 32250 ft | 473 kts | 323° |
| 2026-04-22 02:45 | 62.57537 | 146.71834 | 32258 ft | 473 kts | 323° |
| 2026-04-22 02:45 | 62.62741 | 146.63097 | 32259 ft | 473 kts | 323° |
| 2026-04-22 02:46 | 62.67916 | 146.54369 | 32262 ft | 472 kts | 323° |
| 2026-04-22 02:46 | 62.73128 | 146.45574 | 32262 ft | 472 kts | 323° |
| 2026-04-22 02:47 | 62.78299 | 146.36819 | 32260 ft | 472 kts | 323° |
| 2026-04-22 02:47 | 62.83492 | 146.27974 | 32261 ft | 472 kts | 323° |
| 2026-04-22 02:48 | 62.88653 | 146.19147 | 32257 ft | 472 kts | 323° |
| 2026-04-22 02:48 | 62.93806 | 146.10294 | 32254 ft | 471 kts | 323° |
| 2026-04-22 02:49 | 62.98965 | 146.01390 | 32256 ft | 471 kts | 322° |
| 2026-04-22 02:49 | 63.04102 | 145.92484 | 32260 ft | 471 kts | 322° |
| 2026-04-22 02:50 | 63.09231 | 145.83550 | 32249 ft | 471 kts | 322° |
| 2026-04-22 02:50 | 63.13504 | 145.76079 | 32257 ft | 470 kts | 322° |
| 2026-04-22 02:51 | 63.18642 | 145.67060 | 32257 ft | 469 kts | 322° |
| 2026-04-22 02:51 | 63.23736 | 145.58077 | 32262 ft | 469 kts | 322° |
| 2026-04-22 02:52 | 63.28856 | 145.49008 | 32271 ft | 469 kts | 322° |
| 2026-04-22 02:52 | 63.33926 | 145.39977 | 32262 ft | 469 kts | 322° |
| 2026-04-22 02:53 | 63.38987 | 145.30868 | 32273 ft | 468 kts | 322° |
| 2026-04-22 02:53 | 63.44038 | 145.21727 | 32274 ft | 467 kts | 322° |
| 2026-04-22 02:54 | 63.49092 | 145.12548 | 32278 ft | 467 kts | 322° |
| 2026-04-22 02:54 | 63.54127 | 145.03361 | 32277 ft | 467 kts | 322° |
| 2026-04-22 02:55 | 63.59158 | 144.94136 | 32270 ft | 467 kts | 322° |
| 2026-04-22 02:55 | 63.64172 | 144.84903 | 32277 ft | 465 kts | 322° |
| 2026-04-22 02:56 | 63.69140 | 144.75709 | 32271 ft | 465 kts | 322° |
| 2026-04-22 02:56 | 63.74128 | 144.66436 | 32271 ft | 464 kts | 322° |
| 2026-04-22 02:57 | 63.79105 | 144.57140 | 32268 ft | 463 kts | 321° |
| 2026-04-22 02:57 | 63.84065 | 144.47829 | 32281 ft | 464 kts | 321° |
| 2026-04-22 02:58 | 63.89029 | 144.38471 | 32259 ft | 463 kts | 321° |
| 2026-04-22 02:58 | 63.93946 | 144.29153 | 32262 ft | 462 kts | 321° |
| 2026-04-22 02:59 | 63.98875 | 144.19771 | 32254 ft | 462 kts | 321° |
| 2026-04-22 02:59 | 64.03801 | 144.10355 | 32277 ft | 462 kts | 321° |
| 2026-04-22 03:00 | 64.08720 | 144.00907 | 32277 ft | 462 kts | 321° |
| 2026-04-22 03:00 | 64.13651 | 143.91463 | 32263 ft | 462 kts | 321° |
| 2026-04-22 03:01 | 64.18573 | 143.81998 | 32256 ft | 462 kts | 321° |
| 2026-04-22 03:01 | 64.23488 | 143.72498 | 32254 ft | 462 kts | 321° |
| 2026-04-22 03:02 | 64.28395 | 143.62955 | 32273 ft | 462 kts | 321° |
| 2026-04-22 03:02 | 64.33301 | 143.53342 | 32268 ft | 463 kts | 321° |
| 2026-04-22 03:03 | 64.38169 | 143.43763 | 32262 ft | 462 kts | 321° |
| 2026-04-22 03:03 | 64.43056 | 143.34102 | 32270 ft | 461 kts | 321° |
| 2026-04-22 03:04 | 64.47918 | 143.24446 | 32246 ft | 460 kts | 321° |
| 2026-04-22 03:04 | 64.52773 | 143.14766 | 32259 ft | 460 kts | 321° |
| 2026-04-22 03:05 | 64.57526 | 143.04776 | 32264 ft | 460 kts | 317° |
| 2026-04-22 03:05 | 64.62100 | 142.94342 | 32256 ft | 460 kts | 317° |
| 2026-04-22 03:06 | 64.66651 | 142.83868 | 32257 ft | 459 kts | 317° |
| 2026-04-22 03:06 | 64.71205 | 142.73415 | 32255 ft | 459 kts | 317° |
| 2026-04-22 03:07 | 64.75736 | 142.62996 | 32252 ft | 459 kts | 317° |
| 2026-04-22 03:07 | 64.80281 | 142.52499 | 32250 ft | 459 kts | 317° |
| 2026-04-22 03:08 | 64.84824 | 142.41950 | 32246 ft | 459 kts | 316° |
| 2026-04-22 03:08 | 64.89353 | 142.31378 | 32244 ft | 458 kts | 316° |
| 2026-04-22 03:09 | 64.93873 | 142.20772 | 32254 ft | 458 kts | 316° |
| 2026-04-22 03:09 | 64.98388 | 142.10134 | 32244 ft | 458 kts | 316° |
| 2026-04-22 03:10 | 65.02900 | 141.99607 | 32238 ft | 458 kts | 316° |
| 2026-04-22 03:10 | 65.07382 | 141.88882 | 32246 ft | 458 kts | 315° |
| 2026-04-22 03:11 | 65.11862 | 141.78139 | 32245 ft | 458 kts | 315° |
| 2026-04-22 03:11 | 65.16351 | 141.67374 | 32240 ft | 459 kts | 315° |
| 2026-04-22 03:12 | 65.20841 | 141.56562 | 32255 ft | 459 kts | 315° |
| 2026-04-22 03:12 | 65.27567 | 141.40260 | 32247 ft | 459 kts | 314° |
| 2026-04-22 03:13 | 65.32040 | 141.29353 | 32250 ft | 459 kts | 314° |
| 2026-04-22 03:13 | 65.36514 | 141.18411 | 32240 ft | 459 kts | 314° |
| 2026-04-22 03:14 | 65.40953 | 141.07509 | 32244 ft | 459 kts | 314° |
| 2026-04-22 03:14 | 65.45413 | 140.96496 | 32242 ft | 459 kts | 314° |
| 2026-04-22 03:15 | 65.49862 | 140.85452 | 32229 ft | 459 kts | 314° |
| 2026-04-22 03:15 | 65.54307 | 140.74366 | 32231 ft | 459 kts | 313° |
| 2026-04-22 03:16 | 65.58708 | 140.63320 | 32224 ft | 459 kts | 313° |
| 2026-04-22 03:16 | 65.63136 | 140.52152 | 32222 ft | 460 kts | 313° |
| 2026-04-22 03:17 | 65.67559 | 140.40940 | 32236 ft | 460 kts | 313° |
| 2026-04-22 03:17 | 65.71973 | 140.29689 | 32239 ft | 460 kts | 313° |
| 2026-04-22 03:18 | 65.76378 | 140.18413 | 32229 ft | 460 kts | 312° |
| 2026-04-22 03:18 | 65.80788 | 140.07048 | 32237 ft | 461 kts | 312° |
| 2026-04-22 03:19 | 65.85157 | 139.95732 | 32231 ft | 461 kts | 312° |
| 2026-04-22 03:19 | 65.89558 | 139.84278 | 32234 ft | 462 kts | 312° |
| 2026-04-22 03:20 | 65.93950 | 139.72782 | 32230 ft | 462 kts | 312° |
| 2026-04-22 03:20 | 65.98331 | 139.61259 | 32238 ft | 462 kts | 311° |
| 2026-04-22 03:21 | 66.02712 | 139.49663 | 32233 ft | 463 kts | 311° |
| 2026-04-22 03:21 | 66.07060 | 139.38098 | 32231 ft | 463 kts | 311° |
| 2026-04-22 03:22 | 66.11429 | 139.26415 | 32236 ft | 464 kts | 311° |
| 2026-04-22 03:22 | 66.15792 | 139.14687 | 32230 ft | 464 kts | 311° |
| 2026-04-22 03:23 | 66.20151 | 139.02784 | 32238 ft | 464 kts | 310° |
| 2026-04-22 03:23 | 66.24433 | 138.90966 | 32240 ft | 463 kts | 310° |
| 2026-04-22 03:24 | 66.28733 | 138.79036 | 32237 ft | 464 kts | 309° |
| 2026-04-22 03:24 | 66.33028 | 138.67076 | 32235 ft | 464 kts | 309° |
| 2026-04-22 03:25 | 66.37311 | 138.55084 | 32236 ft | 463 kts | 309° |
| 2026-04-22 03:25 | 66.41595 | 138.43028 | 32238 ft | 464 kts | 309° |
| 2026-04-22 03:26 | 66.45861 | 138.30947 | 32232 ft | 464 kts | 309° |
| 2026-04-22 03:26 | 66.50123 | 138.18813 | 32233 ft | 463 kts | 309° |
| 2026-04-22 03:27 | 66.54349 | 138.06714 | 32231 ft | 464 kts | 309° |
| 2026-04-22 03:27 | 66.58584 | 137.94519 | 32230 ft | 463 kts | 309° |
| 2026-04-22 03:28 | 66.62814 | 137.82272 | 32227 ft | 463 kts | 309° |
| 2026-04-22 03:28 | 66.67033 | 137.69989 | 32231 ft | 464 kts | 308° |
| 2026-04-22 03:29 | 66.71250 | 137.57648 | 32226 ft | 464 kts | 308° |
| 2026-04-22 03:29 | 66.75459 | 137.45259 | 32230 ft | 464 kts | 308° |
| 2026-04-22 03:30 | 66.79667 | 137.32846 | 32230 ft | 464 kts | 308° |
| 2026-04-22 03:30 | 66.83841 | 137.20477 | 32233 ft | 464 kts | 308° |
| 2026-04-22 03:31 | 66.88032 | 137.07983 | 32242 ft | 464 kts | 307° |
| 2026-04-22 03:31 | 66.92218 | 136.95424 | 32235 ft | 465 kts | 307° |
| 2026-04-22 03:32 | 66.96401 | 136.82800 | 32233 ft | 465 kts | 307° |
| 2026-04-22 03:32 | 67.00573 | 136.70134 | 32226 ft | 466 kts | 307° |
| 2026-04-22 03:33 | 67.04738 | 136.57420 | 32223 ft | 466 kts | 307° |
| 2026-04-22 03:33 | 67.08889 | 136.44677 | 32242 ft | 466 kts | 306° |
| 2026-04-22 03:34 | 67.13042 | 136.31848 | 32229 ft | 466 kts | 306° |
| 2026-04-22 03:34 | 67.17146 | 136.19103 | 32226 ft | 466 kts | 306° |
| 2026-04-22 03:35 | 67.21283 | 136.06237 | 32231 ft | 466 kts | 306° |
| 2026-04-22 03:35 | 67.25445 | 135.93424 | 32234 ft | 466 kts | 306° |
| 2026-04-22 03:36 | 67.29604 | 135.80574 | 32265 ft | 465 kts | 306° |
| 2026-04-22 03:36 | 67.33751 | 135.67657 | 32225 ft | 466 kts | 306° |
| 2026-04-22 03:37 | 67.37889 | 135.54683 | 32228 ft | 466 kts | 305° |
| 2026-04-22 03:37 | 67.42013 | 135.41673 | 32229 ft | 466 kts | 305° |
| 2026-04-22 03:38 | 67.46102 | 135.28692 | 32229 ft | 466 kts | 305° |
| 2026-04-22 03:38 | 67.50207 | 135.15584 | 32225 ft | 466 kts | 305° |
| 2026-04-22 03:39 | 67.54304 | 135.02424 | 32240 ft | 467 kts | 304° |
| 2026-04-22 03:39 | 67.58389 | 134.89221 | 32228 ft | 467 kts | 304° |
| 2026-04-22 03:40 | 67.61786 | 134.78191 | 32217 ft | 467 kts | 304° |
| 2026-04-22 03:40 | 67.65877 | 134.64900 | 32212 ft | 468 kts | 305° |
| 2026-04-22 03:41 | 67.70082 | 134.51844 | 32217 ft | 468 kts | 306° |
| 2026-04-22 03:41 | 67.74311 | 134.38795 | 32229 ft | 468 kts | 305° |
| 2026-04-22 03:42 | 67.78514 | 134.25657 | 32223 ft | 468 kts | 305° |
| 2026-04-22 03:42 | 67.82692 | 134.12466 | 32219 ft | 468 kts | 304° |
| 2026-04-22 03:43 | 67.86833 | 133.99313 | 32214 ft | 467 kts | 304° |
| 2026-04-22 03:43 | 67.90990 | 133.86034 | 32206 ft | 467 kts | 304° |
| 2026-04-22 03:44 | 67.95135 | 133.72719 | 32248 ft | 467 kts | 304° |
| 2026-04-22 03:44 | 67.99327 | 133.59443 | 32218 ft | 469 kts | 304° |
| 2026-04-22 03:45 | 68.03551 | 133.46165 | 32203 ft | 469 kts | 304° |
| 2026-04-22 03:45 | 68.07755 | 133.32825 | 32198 ft | 469 kts | 304° |
| 2026-04-22 03:46 | 68.11936 | 133.19411 | 32203 ft | 468 kts | 303° |
| 2026-04-22 03:46 | 68.16035 | 133.05849 | 32208 ft | 468 kts | 303° |
| 2026-04-22 03:47 | 68.20109 | 132.92185 | 32216 ft | 469 kts | 302° |
| 2026-04-22 03:47 | 68.24189 | 132.78450 | 32210 ft | 469 kts | 302° |
| 2026-04-22 03:48 | 68.28236 | 132.64774 | 32212 ft | 470 kts | 302° |
| 2026-04-22 03:48 | 68.32305 | 132.50950 | 32206 ft | 470 kts | 302° |
| 2026-04-22 03:49 | 68.36359 | 132.37095 | 32212 ft | 469 kts | 302° |
| 2026-04-22 03:49 | 68.40400 | 132.23183 | 32226 ft | 470 kts | 301° |
| 2026-04-22 03:50 | 68.44443 | 132.09172 | 32208 ft | 471 kts | 301° |
| 2026-04-22 03:50 | 68.48480 | 131.95092 | 32203 ft | 472 kts | 301° |
| 2026-04-22 03:51 | 68.52483 | 131.81045 | 32215 ft | 472 kts | 301° |
| 2026-04-22 03:51 | 68.56496 | 131.66873 | 32228 ft | 472 kts | 301° |
| 2026-04-22 03:52 | 68.60501 | 131.52635 | 32202 ft | 472 kts | 300° |
| 2026-04-22 03:52 | 68.64487 | 131.38399 | 32222 ft | 469 kts | 300° |
| 2026-04-22 03:53 | 68.68450 | 131.24121 | 32221 ft | 470 kts | 300° |
| 2026-04-22 03:53 | 68.72405 | 131.09770 | 32219 ft | 471 kts | 300° |
| 2026-04-22 03:54 | 68.76327 | 130.95433 | 32224 ft | 471 kts | 299° |
| 2026-04-22 03:54 | 68.80266 | 130.80944 | 32222 ft | 472 kts | 299° |
| 2026-04-22 03:55 | 68.84206 | 130.66361 | 32228 ft | 474 kts | 299° |
| 2026-04-22 03:55 | 68.88145 | 130.51694 | 32220 ft | 474 kts | 298° |
| 2026-04-22 03:56 | 68.92076 | 130.36950 | 32205 ft | 475 kts | 298° |
| 2026-04-22 03:56 | 68.95995 | 130.22158 | 32212 ft | 475 kts | 298° |
| 2026-04-22 03:57 | 68.99900 | 130.07310 | 32179 ft | 475 kts | 298° |
| 2026-04-22 03:57 | 69.03794 | 129.92404 | 32185 ft | 476 kts | 298° |
| 2026-04-22 03:58 | 69.07667 | 129.77478 | 32171 ft | 477 kts | 298° |
| 2026-04-22 03:58 | 69.11559 | 129.62370 | 32176 ft | 478 kts | 298° |
| 2026-04-22 03:59 | 69.15442 | 129.47198 | 32172 ft | 479 kts | 297° |
| 2026-04-22 03:59 | 69.19315 | 129.31956 | 32171 ft | 479 kts | 297° |
| 2026-04-22 04:00 | 69.23175 | 129.16666 | 32215 ft | 481 kts | 297° |
| 2026-04-22 04:00 | 69.27048 | 129.01214 | 32187 ft | 483 kts | 297° |
| 2026-04-22 04:01 | 69.30945 | 128.85695 | 32174 ft | 485 kts | 297° |
| 2026-04-22 04:01 | 69.34862 | 128.70078 | 32168 ft | 487 kts | 297° |
| 2026-04-22 04:02 | 69.38746 | 128.54490 | 32171 ft | 487 kts | 297° |
| 2026-04-22 04:02 | 69.42646 | 128.38703 | 32233 ft | 488 kts | 297° |
| 2026-04-22 04:03 | 69.46543 | 128.22786 | 32175 ft | 491 kts | 297° |
| 2026-04-22 04:03 | 69.50439 | 128.06780 | 32169 ft | 491 kts | 297° |
| 2026-04-22 04:04 | 69.54315 | 127.90737 | 32169 ft | 491 kts | 297° |
| 2026-04-22 04:04 | 69.58177 | 127.74625 | 32165 ft | 489 kts | 297° |
| 2026-04-22 04:05 | 69.61985 | 127.58613 | 32226 ft | 490 kts | 297° |
| 2026-04-22 04:05 | 69.65845 | 127.42254 | 32170 ft | 493 kts | 297° |
| 2026-04-22 04:06 | 69.69668 | 127.25948 | 32165 ft | 496 kts | 297° |
| 2026-04-22 04:06 | 69.73524 | 127.09373 | 32165 ft | 497 kts | 297° |
| 2026-04-22 04:07 | 69.77362 | 126.92742 | 32166 ft | 498 kts | 297° |
| 2026-04-22 04:07 | 69.81190 | 126.76032 | 32160 ft | 498 kts | 297° |
| 2026-04-22 04:08 | 69.85008 | 126.59233 | 32163 ft | 499 kts | 298° |
| 2026-04-22 04:08 | 69.88812 | 126.42379 | 32169 ft | 499 kts | 298° |
| 2026-04-22 04:09 | 69.92547 | 126.25518 | 32160 ft | 499 kts | 297° |
| 2026-04-22 04:09 | 69.96275 | 126.08482 | 32167 ft | 498 kts | 297° |
| 2026-04-22 04:10 | 69.99984 | 125.91411 | 32169 ft | 498 kts | 297° |
| 2026-04-22 04:10 | 70.03689 | 125.74246 | 32163 ft | 499 kts | 298° |
| 2026-04-22 04:11 | 70.07378 | 125.57029 | 32161 ft | 499 kts | 298° |
| 2026-04-22 04:11 | 70.11054 | 125.39737 | 32171 ft | 499 kts | 298° |
| 2026-04-22 04:12 | 70.14712 | 125.22383 | 32171 ft | 499 kts | 297° |
| 2026-04-22 04:12 | 70.18331 | 125.05077 | 32174 ft | 499 kts | 297° |
| 2026-04-22 04:13 | 70.21959 | 124.87584 | 32178 ft | 500 kts | 298° |
| 2026-04-22 04:13 | 70.25576 | 124.70000 | 32173 ft | 500 kts | 297° |
| 2026-04-22 04:14 | 70.29174 | 124.52363 | 32167 ft | 500 kts | 297° |
| 2026-04-22 04:14 | 70.32749 | 124.34688 | 32171 ft | 500 kts | 297° |
| 2026-04-22 04:15 | 70.36306 | 124.16960 | 32165 ft | 499 kts | 297° |
| 2026-04-22 04:15 | 70.39846 | 123.99167 | 32170 ft | 500 kts | 297° |
| 2026-04-22 04:16 | 70.45105 | 123.72460 | 32161 ft | 500 kts | 297° |
| 2026-04-22 04:17 | 70.48625 | 123.54412 | 32157 ft | 500 kts | 297° |
| 2026-04-22 04:17 | 70.52104 | 123.36558 | 32159 ft | 499 kts | 297° |
| 2026-04-22 04:18 | 70.55643 | 123.18482 | 32160 ft | 500 kts | 297° |
| 2026-04-22 04:18 | 70.59144 | 123.00450 | 32150 ft | 500 kts | 297° |
| 2026-04-22 04:19 | 70.62606 | 122.82434 | 32148 ft | 500 kts | 296° |
| 2026-04-22 04:19 | 70.66065 | 122.64261 | 32144 ft | 500 kts | 296° |
| 2026-04-22 04:20 | 70.69515 | 122.46000 | 32141 ft | 500 kts | 296° |
| 2026-04-22 04:20 | 70.72937 | 122.27712 | 32138 ft | 500 kts | 296° |
| 2026-04-22 04:21 | 70.76327 | 122.09336 | 32140 ft | 500 kts | 296° |
| 2026-04-22 04:21 | 70.79699 | 121.90890 | 32138 ft | 499 kts | 296° |
| 2026-04-22 04:22 | 70.83031 | 121.72516 | 32137 ft | 499 kts | 296° |
| 2026-04-22 04:22 | 70.86364 | 121.53987 | 32137 ft | 499 kts | 296° |
| 2026-04-22 04:23 | 70.89687 | 121.35345 | 32138 ft | 499 kts | 295° |
| 2026-04-22 04:23 | 70.92984 | 121.16681 | 32142 ft | 499 kts | 296° |
| 2026-04-22 04:24 | 70.96253 | 120.98009 | 32147 ft | 500 kts | 296° |
| 2026-04-22 04:24 | 70.99520 | 120.79177 | 32147 ft | 500 kts | 295° |
| 2026-04-22 04:25 | 71.02769 | 120.60283 | 32149 ft | 500 kts | 295° |
| 2026-04-22 04:25 | 71.05984 | 120.41427 | 32153 ft | 500 kts | 295° |
| 2026-04-22 04:25 | 71.07596 | 120.31901 | 32315 ft | 503 kts | 295° |
| 2026-04-22 04:26 | 71.09214 | 120.22269 | 32627 ft | 502 kts | 295° |
| 2026-04-22 04:26 | 71.10795 | 120.12725 | 32993 ft | 500 kts | 295° |
| 2026-04-22 04:26 | 71.12367 | 120.03171 | 33363 ft | 498 kts | 295° |
| 2026-04-22 04:26 | 71.13930 | 119.93621 | 33712 ft | 497 kts | 295° |
| 2026-04-22 04:27 | 71.15475 | 119.84147 | 34008 ft | 497 kts | 294° |
| 2026-04-22 04:27 | 71.18600 | 119.64883 | 34141 ft | 500 kts | 294° |
| 2026-04-22 04:28 | 71.21690 | 119.45697 | 34154 ft | 497 kts | 294° |
| 2026-04-22 04:28 | 71.24739 | 119.26565 | 34168 ft | 495 kts | 294° |
| 2026-04-22 04:29 | 71.27784 | 119.07330 | 34168 ft | 494 kts | 294° |
| 2026-04-22 04:29 | 71.30784 | 118.88211 | 34172 ft | 494 kts | 294° |
| 2026-04-22 04:30 | 71.33795 | 118.68838 | 34178 ft | 495 kts | 294° |
| 2026-04-22 04:30 | 71.36769 | 118.49529 | 34182 ft | 496 kts | 294° |
| 2026-04-22 04:31 | 71.39745 | 118.30004 | 34203 ft | 497 kts | 294° |
| 2026-04-22 04:31 | 71.42709 | 118.10366 | 34183 ft | 498 kts | 293° |
| 2026-04-22 04:32 | 71.45155 | 117.94015 | 34184 ft | 498 kts | 293° |
| 2026-04-22 04:32 | 71.48083 | 117.74275 | 34184 ft | 498 kts | 293° |
| 2026-04-22 04:33 | 71.50991 | 117.54479 | 34191 ft | 497 kts | 293° |
| 2026-04-22 04:33 | 71.53854 | 117.34749 | 34191 ft | 497 kts | 292° |
| 2026-04-22 04:34 | 71.56713 | 117.14843 | 34191 ft | 497 kts | 292° |
| 2026-04-22 04:34 | 71.59555 | 116.94875 | 34193 ft | 497 kts | 292° |
| 2026-04-22 04:35 | 71.62361 | 116.74968 | 34196 ft | 496 kts | 292° |
| 2026-04-22 04:35 | 71.65155 | 116.54924 | 34202 ft | 496 kts | 292° |
| 2026-04-22 04:36 | 71.67931 | 116.34807 | 34200 ft | 496 kts | 292° |
| 2026-04-22 04:36 | 71.70670 | 116.14756 | 34213 ft | 497 kts | 291° |
| 2026-04-22 04:37 | 71.73406 | 115.94501 | 34204 ft | 497 kts | 291° |
| 2026-04-22 04:37 | 71.76107 | 115.74289 | 34209 ft | 497 kts | 291° |
| 2026-04-22 04:38 | 71.78801 | 115.53919 | 34208 ft | 497 kts | 291° |
| 2026-04-22 04:38 | 71.81472 | 115.33501 | 34208 ft | 497 kts | 291° |
| 2026-04-22 04:39 | 71.84119 | 115.13049 | 34222 ft | 497 kts | 290° |
| 2026-04-22 04:39 | 71.86727 | 114.92667 | 34208 ft | 497 kts | 290° |
| 2026-04-22 04:40 | 71.89331 | 114.72096 | 34223 ft | 497 kts | 290° |
| 2026-04-22 04:40 | 71.91915 | 114.51456 | 34231 ft | 497 kts | 290° |
| 2026-04-22 04:41 | 71.94465 | 114.30865 | 34218 ft | 497 kts | 290° |
| 2026-04-22 04:41 | 71.97012 | 114.10078 | 34232 ft | 496 kts | 289° |
| 2026-04-22 04:42 | 71.99473 | 113.89418 | 34225 ft | 495 kts | 288° |
| 2026-04-22 04:42 | 72.01911 | 113.68558 | 34228 ft | 494 kts | 288° |
| 2026-04-22 04:43 | 72.04324 | 113.47717 | 34227 ft | 493 kts | 288° |
| 2026-04-22 04:43 | 72.06716 | 113.26869 | 34232 ft | 493 kts | 288° |
| 2026-04-22 04:44 | 72.09075 | 113.06057 | 34233 ft | 492 kts | 287° |
| 2026-04-22 04:44 | 72.11422 | 112.85111 | 34243 ft | 492 kts | 287° |
| 2026-04-22 04:45 | 72.13741 | 112.64157 | 34243 ft | 493 kts | 287° |
| 2026-04-22 04:45 | 72.16035 | 112.43204 | 34241 ft | 493 kts | 287° |
| 2026-04-22 04:46 | 72.18320 | 112.22079 | 34248 ft | 493 kts | 287° |
| 2026-04-22 04:46 | 72.20599 | 112.00879 | 34246 ft | 494 kts | 287° |
| 2026-04-22 04:47 | 72.22855 | 111.79766 | 34256 ft | 494 kts | 286° |
| 2026-04-22 04:47 | 72.25102 | 111.58484 | 34253 ft | 494 kts | 286° |
| 2026-04-22 04:48 | 72.27322 | 111.37164 | 34265 ft | 493 kts | 286° |
| 2026-04-22 04:48 | 72.29506 | 111.15915 | 34267 ft | 493 kts | 285° |
| 2026-04-22 04:49 | 72.31676 | 110.94529 | 34268 ft | 493 kts | 285° |
| 2026-04-22 04:49 | 72.33825 | 110.73059 | 34281 ft | 493 kts | 285° |
| 2026-04-22 04:50 | 72.35948 | 110.51580 | 34279 ft | 492 kts | 284° |
| 2026-04-22 04:50 | 72.38044 | 110.30091 | 34276 ft | 492 kts | 284° |
| 2026-04-22 04:51 | 72.40103 | 110.08691 | 34284 ft | 491 kts | 284° |
| 2026-04-22 04:51 | 72.42147 | 109.87152 | 34283 ft | 491 kts | 284° |
| 2026-04-22 04:52 | 72.44171 | 109.65527 | 34320 ft | 490 kts | 283° |
| 2026-04-22 04:52 | 72.46166 | 109.43912 | 34299 ft | 491 kts | 283° |
| 2026-04-22 04:53 | 72.48143 | 109.22204 | 34290 ft | 491 kts | 283° |
| 2026-04-22 04:53 | 72.50079 | 109.00631 | 34297 ft | 491 kts | 283° |
| 2026-04-22 04:54 | 72.52004 | 108.78877 | 34292 ft | 490 kts | 283° |
| 2026-04-22 04:54 | 72.53909 | 108.57029 | 34295 ft | 490 kts | 282° |
| 2026-04-22 04:55 | 72.55791 | 108.35129 | 34306 ft | 491 kts | 282° |
| 2026-04-22 04:55 | 72.57637 | 108.13326 | 34288 ft | 491 kts | 282° |
| 2026-04-22 04:56 | 72.59471 | 107.91341 | 34303 ft | 491 kts | 282° |
| 2026-04-22 04:56 | 72.61281 | 107.69304 | 34291 ft | 490 kts | 281° |
| 2026-04-22 04:57 | 72.63049 | 107.47437 | 34313 ft | 490 kts | 281° |
| 2026-04-22 04:57 | 72.64811 | 107.25318 | 34315 ft | 490 kts | 281° |
| 2026-04-22 04:58 | 72.66545 | 107.03197 | 34306 ft | 490 kts | 280° |
| 2026-04-22 04:58 | 72.68247 | 106.81131 | 34304 ft | 489 kts | 280° |
| 2026-04-22 04:59 | 72.69920 | 106.59075 | 34303 ft | 489 kts | 280° |
| 2026-04-22 04:59 | 72.71571 | 106.36962 | 34305 ft | 489 kts | 279° |
| 2026-04-22 05:00 | 72.73202 | 106.14745 | 34332 ft | 488 kts | 279° |
| 2026-04-22 05:00 | 72.74813 | 105.92439 | 34316 ft | 489 kts | 279° |
| 2026-04-22 05:01 | 72.76385 | 105.70280 | 34316 ft | 488 kts | 279° |
| 2026-04-22 05:01 | 72.77939 | 105.47993 | 34304 ft | 488 kts | 279° |
| 2026-04-22 05:02 | 72.79474 | 105.25591 | 34306 ft | 488 kts | 278° |
| 2026-04-22 05:02 | 72.80973 | 105.03320 | 34318 ft | 488 kts | 278° |
| 2026-04-22 05:03 | 72.82461 | 104.80802 | 34314 ft | 489 kts | 278° |
| 2026-04-22 05:03 | 72.83915 | 104.58390 | 34309 ft | 489 kts | 278° |
| 2026-04-22 05:04 | 72.85350 | 104.35837 | 34306 ft | 488 kts | 278° |
| 2026-04-22 05:04 | 72.86754 | 104.13375 | 34301 ft | 488 kts | 277° |
| 2026-04-22 05:05 | 72.88128 | 103.90924 | 34308 ft | 488 kts | 277° |
| 2026-04-22 05:05 | 72.89486 | 103.68319 | 34326 ft | 488 kts | 277° |
| 2026-04-22 05:06 | 72.90814 | 103.45748 | 34308 ft | 487 kts | 277° |
| 2026-04-22 05:06 | 72.92114 | 103.23199 | 34304 ft | 486 kts | 276° |
| 2026-04-22 05:07 | 72.93393 | 103.00556 | 34304 ft | 485 kts | 276° |
| 2026-04-22 05:07 | 72.94639 | 102.78010 | 34301 ft | 485 kts | 276° |
| 2026-04-22 05:08 | 72.95857 | 102.55496 | 34313 ft | 485 kts | 276° |
| 2026-04-22 05:08 | 72.97058 | 102.32778 | 34308 ft | 485 kts | 276° |
| 2026-04-22 05:09 | 72.98230 | 102.10154 | 34305 ft | 485 kts | 275° |
| 2026-04-22 05:09 | 72.99381 | 101.87391 | 34306 ft | 485 kts | 275° |
| 2026-04-22 05:10 | 73.00500 | 101.64737 | 34301 ft | 485 kts | 275° |
| 2026-04-22 05:10 | 73.01595 | 101.42035 | 34301 ft | 485 kts | 275° |
| 2026-04-22 05:11 | 73.02663 | 101.19334 | 34299 ft | 485 kts | 275° |
| 2026-04-22 05:11 | 73.03712 | 100.96475 | 34293 ft | 484 kts | 274° |
| 2026-04-22 05:12 | 73.04729 | 100.73725 | 34295 ft | 484 kts | 274° |
| 2026-04-22 05:12 | 73.05723 | 100.50900 | 34287 ft | 485 kts | 274° |
| 2026-04-22 05:13 | 73.06697 | 100.27939 | 34287 ft | 484 kts | 274° |
| 2026-04-22 05:13 | 73.07640 | 100.05099 | 34300 ft | 484 kts | 274° |
| 2026-04-22 05:14 | 73.08557 | 99.82212 | 34290 ft | 485 kts | 274° |
| 2026-04-22 05:14 | 73.09448 | 99.59324 | 34277 ft | 485 kts | 274° |
| 2026-04-22 05:15 | 73.10315 | 99.36366 | 34281 ft | 485 kts | 273° |
| 2026-04-22 05:15 | 73.11164 | 99.13212 | 34275 ft | 485 kts | 273° |
| 2026-04-22 05:16 | 73.11979 | 98.90249 | 34276 ft | 485 kts | 273° |
| 2026-04-22 05:16 | 73.12768 | 98.67241 | 34282 ft | 486 kts | 274° |
| 2026-04-22 05:17 | 73.13536 | 98.44089 | 34261 ft | 486 kts | 273° |
| 2026-04-22 05:17 | 73.14278 | 98.20927 | 34262 ft | 486 kts | 273° |
| 2026-04-22 05:18 | 73.15337 | 97.86344 | 34255 ft | 485 kts | 273° |
| 2026-04-22 05:18 | 73.16011 | 97.63219 | 34256 ft | 485 kts | 272° |
| 2026-04-22 05:19 | 73.16663 | 97.39986 | 34252 ft | 486 kts | 273° |
| 2026-04-22 05:19 | 73.17284 | 97.16847 | 34249 ft | 486 kts | 273° |
| 2026-04-22 05:20 | 73.17884 | 96.93543 | 34232 ft | 486 kts | 272° |
| 2026-04-22 05:20 | 73.18362 | 96.74221 | 34238 ft | 485 kts | 272° |
| 2026-04-22 05:21 | 73.18911 | 96.51012 | 34235 ft | 485 kts | 272° |
| 2026-04-22 05:21 | 73.19434 | 96.27798 | 34241 ft | 485 kts | 272° |
| 2026-04-22 05:22 | 73.19933 | 96.04436 | 34217 ft | 485 kts | 272° |
| 2026-04-22 05:22 | 73.20404 | 95.81210 | 34221 ft | 485 kts | 272° |
| 2026-04-22 05:23 | 73.20847 | 95.58017 | 34220 ft | 485 kts | 272° |
| 2026-04-22 05:23 | 73.21267 | 95.34624 | 34209 ft | 485 kts | 271° |
| 2026-04-22 05:24 | 73.21658 | 95.11455 | 34211 ft | 485 kts | 271° |
| 2026-04-22 05:24 | 73.22025 | 94.88090 | 34205 ft | 484 kts | 271° |
| 2026-04-22 05:25 | 73.22364 | 94.64936 | 34200 ft | 484 kts | 271° |
| 2026-04-22 05:25 | 73.22676 | 94.41736 | 34187 ft | 483 kts | 270° |
| 2026-04-22 05:26 | 73.22963 | 94.18430 | 34171 ft | 483 kts | 271° |
| 2026-04-22 05:26 | 73.23225 | 93.95177 | 34173 ft | 482 kts | 271° |
| 2026-04-22 05:27 | 73.23459 | 93.71989 | 34179 ft | 483 kts | 271° |
| 2026-04-22 05:27 | 73.23668 | 93.48708 | 34163 ft | 482 kts | 271° |
| 2026-04-22 05:28 | 73.23849 | 93.25565 | 34157 ft | 482 kts | 270° |
| 2026-04-22 05:28 | 73.24006 | 93.02298 | 34137 ft | 482 kts | 270° |
| 2026-04-22 05:29 | 73.24135 | 92.79215 | 34136 ft | 482 kts | 270° |
| 2026-04-22 05:29 | 73.24240 | 92.55920 | 34134 ft | 482 kts | 270° |
| 2026-04-22 05:30 | 73.24318 | 92.32829 | 34132 ft | 482 kts | 270° |
| 2026-04-22 05:30 | 73.24371 | 92.09506 | 34126 ft | 482 kts | 270° |
| 2026-04-22 05:31 | 73.24398 | 91.86366 | 34109 ft | 481 kts | 270° |
| 2026-04-22 05:31 | 73.24398 | 91.63176 | 34113 ft | 481 kts | 269° |
| 2026-04-22 05:32 | 73.24373 | 91.39915 | 34103 ft | 481 kts | 269° |
| 2026-04-22 05:32 | 73.24322 | 91.16735 | 34092 ft | 482 kts | 270° |
| 2026-04-22 05:33 | 73.24245 | 90.93626 | 34081 ft | 481 kts | 269° |
| 2026-04-22 05:33 | 73.24142 | 90.70357 | 34080 ft | 481 kts | 269° |
| 2026-04-22 05:34 | 73.24013 | 90.47169 | 34066 ft | 480 kts | 269° |
| 2026-04-22 05:34 | 73.23859 | 90.24112 | 34063 ft | 480 kts | 269° |
| 2026-04-22 05:35 | 73.23680 | 90.01016 | 34076 ft | 480 kts | 268° |
| 2026-04-22 05:35 | 73.23475 | 89.77911 | 34047 ft | 481 kts | 269° |
| 2026-04-22 05:36 | 73.23245 | 89.54827 | 34067 ft | 480 kts | 268° |
| 2026-04-22 05:36 | 73.22992 | 89.31588 | 34053 ft | 480 kts | 269° |
| 2026-04-22 05:37 | 73.22620 | 89.08637 | 34074 ft | 480 kts | 265° |
| 2026-04-22 05:37 | 73.21865 | 88.85587 | 34037 ft | 481 kts | 264° |
| 2026-04-22 05:38 | 73.21053 | 88.62720 | 34057 ft | 481 kts | 264° |
| 2026-04-22 05:38 | 73.20227 | 88.39677 | 34029 ft | 481 kts | 263° |
| 2026-04-22 05:39 | 73.19397 | 88.16780 | 34029 ft | 481 kts | 264° |
| 2026-04-22 05:39 | 73.18545 | 87.93878 | 34039 ft | 481 kts | 263° |
| 2026-04-22 05:40 | 73.17668 | 87.70988 | 34008 ft | 482 kts | 263° |
| 2026-04-22 05:40 | 73.16762 | 87.48088 | 34025 ft | 481 kts | 263° |
| 2026-04-22 05:41 | 73.15831 | 87.25173 | 33993 ft | 480 kts | 263° |
| 2026-04-22 05:41 | 73.14880 | 87.02484 | 34011 ft | 479 kts | 263° |
| 2026-04-22 05:42 | 73.13909 | 86.79882 | 33993 ft | 478 kts | 262° |
| 2026-04-22 05:42 | 73.12905 | 86.57150 | 33994 ft | 478 kts | 262° |
| 2026-04-22 05:43 | 73.11880 | 86.34486 | 33968 ft | 479 kts | 262° |
| 2026-04-22 05:43 | 73.10833 | 86.11956 | 33982 ft | 479 kts | 262° |
| 2026-04-22 05:44 | 73.09755 | 85.89324 | 33964 ft | 478 kts | 262° |
| 2026-04-22 05:44 | 73.08662 | 85.66906 | 33959 ft | 478 kts | 262° |
| 2026-04-22 05:45 | 73.07541 | 85.44412 | 33953 ft | 478 kts | 262° |
| 2026-04-22 05:45 | 73.06395 | 85.21923 | 33953 ft | 478 kts | 261° |
| 2026-04-22 05:46 | 73.05223 | 84.99474 | 33960 ft | 478 kts | 262° |
| 2026-04-22 05:46 | 73.04029 | 84.77081 | 33942 ft | 477 kts | 261° |
| 2026-04-22 05:47 | 73.02808 | 84.54740 | 33944 ft | 476 kts | 261° |
| 2026-04-22 05:47 | 73.01578 | 84.32685 | 33938 ft | 475 kts | 260° |
| 2026-04-22 05:48 | 73.00318 | 84.10515 | 33954 ft | 475 kts | 260° |
| 2026-04-22 05:48 | 72.99034 | 83.88361 | 33943 ft | 475 kts | 260° |
| 2026-04-22 05:49 | 72.97723 | 83.66214 | 33934 ft | 476 kts | 261° |
| 2026-04-22 05:49 | 72.96391 | 83.44136 | 33936 ft | 474 kts | 261° |
| 2026-04-22 05:50 | 72.95036 | 83.22172 | 33932 ft | 473 kts | 260° |
| 2026-04-22 05:50 | 72.93664 | 83.00251 | 33921 ft | 473 kts | 260° |
| 2026-04-22 05:51 | 72.92266 | 82.78352 | 33925 ft | 473 kts | 260° |
| 2026-04-22 05:51 | 72.90840 | 82.56454 | 33926 ft | 474 kts | 259° |
| 2026-04-22 05:52 | 72.89401 | 82.34729 | 33912 ft | 473 kts | 258° |
| 2026-04-22 05:52 | 72.87937 | 82.12965 | 33912 ft | 473 kts | 259° |
| 2026-04-22 05:53 | 72.86446 | 81.91267 | 33916 ft | 472 kts | 258° |
| 2026-04-22 05:53 | 72.84933 | 81.69577 | 33906 ft | 473 kts | 258° |
| 2026-04-22 05:54 | 72.83395 | 81.47904 | 33893 ft | 473 kts | 258° |
| 2026-04-22 05:54 | 72.81848 | 81.26465 | 33896 ft | 472 kts | 258° |
| 2026-04-22 05:55 | 72.80269 | 81.04920 | 33881 ft | 471 kts | 257° |
| 2026-04-22 05:55 | 72.78669 | 80.83438 | 33878 ft | 471 kts | 258° |
| 2026-04-22 05:56 | 72.77044 | 80.61971 | 33877 ft | 472 kts | 258° |
| 2026-04-22 05:56 | 72.75405 | 80.40657 | 33868 ft | 472 kts | 257° |
| 2026-04-22 05:57 | 72.73735 | 80.19294 | 33862 ft | 472 kts | 257° |
| 2026-04-22 05:57 | 72.72041 | 79.97924 | 33839 ft | 472 kts | 256° |
| 2026-04-22 05:58 | 72.70325 | 79.76625 | 33844 ft | 471 kts | 257° |
| 2026-04-22 05:58 | 72.68590 | 79.55407 | 33848 ft | 472 kts | 256° |
| 2026-04-22 05:59 | 72.66826 | 79.34146 | 33841 ft | 472 kts | 256° |
| 2026-04-22 05:59 | 72.65057 | 79.13099 | 33834 ft | 472 kts | 255° |
| 2026-04-22 06:00 | 72.63251 | 78.91929 | 33853 ft | 471 kts | 256° |
| 2026-04-22 06:00 | 72.61426 | 78.70891 | 33855 ft | 470 kts | 255° |
| 2026-04-22 06:01 | 72.59583 | 78.49903 | 33849 ft | 469 kts | 255° |
| 2026-04-22 06:01 | 72.57726 | 78.29049 | 33825 ft | 468 kts | 255° |
| 2026-04-22 06:02 | 72.55867 | 78.08431 | 33824 ft | 469 kts | 255° |
| 2026-04-22 06:02 | 72.53962 | 77.87604 | 33839 ft | 470 kts | 255° |
| 2026-04-22 06:03 | 72.52032 | 77.66811 | 33826 ft | 470 kts | 254° |
| 2026-04-22 06:03 | 72.50080 | 77.46049 | 33804 ft | 470 kts | 253° |
| 2026-04-22 06:04 | 72.48111 | 77.25370 | 33810 ft | 468 kts | 253° |
| 2026-04-22 06:04 | 72.46144 | 77.04964 | 33808 ft | 468 kts | 253° |
| 2026-04-22 06:05 | 72.44140 | 76.84448 | 33823 ft | 467 kts | 253° |
| 2026-04-22 06:05 | 72.42117 | 76.63995 | 33796 ft | 467 kts | 253° |
| 2026-04-22 06:06 | 72.40077 | 76.43630 | 33793 ft | 469 kts | 252° |
| 2026-04-22 06:06 | 72.38003 | 76.23171 | 33784 ft | 470 kts | 252° |
| 2026-04-22 06:07 | 72.36260 | 76.06174 | 33790 ft | 470 kts | 252° |
| 2026-04-22 06:07 | 72.33802 | 75.82517 | 33802 ft | 468 kts | 252° |
| 2026-04-22 06:08 | 72.32021 | 75.65531 | 33804 ft | 467 kts | 252° |
| 2026-04-22 06:08 | 72.29887 | 75.45427 | 33790 ft | 468 kts | 252° |
| 2026-04-22 06:09 | 72.27711 | 75.25292 | 33766 ft | 467 kts | 252° |
| 2026-04-22 06:09 | 72.25525 | 75.05249 | 33784 ft | 466 kts | 251° |
| 2026-04-22 06:10 | 72.23316 | 74.85250 | 33781 ft | 467 kts | 251° |
| 2026-04-22 06:10 | 72.21107 | 74.65427 | 33803 ft | 467 kts | 251° |
| 2026-04-22 06:11 | 72.18856 | 74.45467 | 33789 ft | 468 kts | 251° |
| 2026-04-22 06:11 | 72.16578 | 74.25508 | 33776 ft | 467 kts | 251° |
| 2026-04-22 06:12 | 72.14293 | 74.05690 | 33757 ft | 467 kts | 250° |
| 2026-04-22 06:12 | 72.11987 | 73.85926 | 33778 ft | 466 kts | 250° |
| 2026-04-22 06:13 | 72.09668 | 73.66263 | 33777 ft | 465 kts | 250° |
| 2026-04-22 06:13 | 72.07338 | 73.46721 | 33774 ft | 467 kts | 250° |
| 2026-04-22 06:14 | 72.04969 | 73.27084 | 33775 ft | 466 kts | 250° |
| 2026-04-22 06:14 | 72.02578 | 73.07470 | 33748 ft | 468 kts | 249° |
| 2026-04-22 06:15 | 72.00181 | 72.88021 | 33757 ft | 469 kts | 249° |
| 2026-04-22 06:15 | 71.97745 | 72.68453 | 33739 ft | 468 kts | 249° |
| 2026-04-22 06:16 | 71.95295 | 72.48982 | 33735 ft | 468 kts | 249° |
| 2026-04-22 06:16 | 71.92824 | 72.29562 | 33727 ft | 466 kts | 249° |
| 2026-04-22 06:17 | 71.90346 | 72.10266 | 33714 ft | 467 kts | 248° |
| 2026-04-22 06:17 | 71.87860 | 71.91143 | 33706 ft | 467 kts | 249° |
| 2026-04-22 06:18 | 71.85339 | 71.71931 | 33709 ft | 466 kts | 248° |
| 2026-04-22 06:18 | 71.82800 | 71.52757 | 33708 ft | 467 kts | 248° |
| 2026-04-22 06:19 | 71.80236 | 71.33630 | 33712 ft | 467 kts | 248° |
| 2026-04-22 06:19 | 71.77656 | 71.14562 | 33703 ft | 467 kts | 248° |
| 2026-04-22 06:20 | 71.75071 | 70.95628 | 33696 ft | 468 kts | 247° |
| 2026-04-22 06:20 | 71.72448 | 70.76605 | 33694 ft | 468 kts | 247° |
| 2026-04-22 06:21 | 71.69807 | 70.57647 | 33694 ft | 469 kts | 246° |
| 2026-04-22 06:21 | 71.67132 | 70.38649 | 33706 ft | 469 kts | 247° |
| 2026-04-22 06:22 | 71.64450 | 70.19770 | 33709 ft | 468 kts | 247° |
| 2026-04-22 06:22 | 71.61751 | 70.00953 | 33706 ft | 469 kts | 246° |
| 2026-04-22 06:23 | 71.59026 | 69.82161 | 33701 ft | 469 kts | 246° |
| 2026-04-22 06:23 | 71.56285 | 69.63409 | 33695 ft | 470 kts | 246° |
| 2026-04-22 06:24 | 71.52142 | 69.35433 | 33696 ft | 471 kts | 246° |
| 2026-04-22 06:25 | 71.49346 | 69.16753 | 33690 ft | 470 kts | 245° |
| 2026-04-22 06:25 | 71.46538 | 68.98177 | 33696 ft | 470 kts | 246° |
| 2026-04-22 06:26 | 71.43735 | 68.79824 | 33679 ft | 463 kts | 246° |
| 2026-04-22 06:26 | 71.40947 | 68.61731 | 33696 ft | 467 kts | 245° |
| 2026-04-22 06:27 | 71.38095 | 68.43420 | 33683 ft | 468 kts | 245° |
| 2026-04-22 06:27 | 71.35222 | 68.25099 | 33680 ft | 470 kts | 245° |
| 2026-04-22 06:28 | 71.32313 | 68.06696 | 33681 ft | 474 kts | 245° |
| 2026-04-22 06:28 | 71.29419 | 67.88581 | 33670 ft | 464 kts | 245° |
| 2026-04-22 06:29 | 71.26535 | 67.70690 | 33674 ft | 464 kts | 244° |
| 2026-04-22 06:29 | 71.23606 | 67.52693 | 33681 ft | 467 kts | 245° |
| 2026-04-22 06:30 | 71.20673 | 67.34820 | 33674 ft | 463 kts | 244° |
| 2026-04-22 06:30 | 71.17734 | 67.17035 | 33673 ft | 467 kts | 245° |
| 2026-04-22 06:31 | 71.14754 | 66.99207 | 33653 ft | 464 kts | 244° |
| 2026-04-22 06:31 | 71.11783 | 66.81568 | 33644 ft | 461 kts | 243° |
| 2026-04-22 06:32 | 71.08812 | 66.64074 | 33654 ft | 464 kts | 243° |
| 2026-04-22 06:32 | 71.05814 | 66.46578 | 33651 ft | 461 kts | 243° |
| 2026-04-22 06:33 | 71.02806 | 66.29150 | 33670 ft | 463 kts | 243° |
| 2026-04-22 06:33 | 70.99750 | 66.11619 | 33673 ft | 464 kts | 243° |
| 2026-04-22 06:34 | 70.96700 | 65.94220 | 33663 ft | 463 kts | 243° |
| 2026-04-22 06:34 | 70.93578 | 65.76893 | 33659 ft | 465 kts | 239° |
| 2026-04-22 06:35 | 70.89734 | 65.60917 | 33662 ft | 464 kts | 233° |
| 2026-04-22 06:35 | 70.85730 | 65.45507 | 33641 ft | 463 kts | 233° |
| 2026-04-22 06:36 | 70.81761 | 65.30169 | 33648 ft | 465 kts | 233° |
| 2026-04-22 06:36 | 70.77752 | 65.14701 | 33645 ft | 465 kts | 234° |
| 2026-04-22 06:37 | 70.73741 | 64.99324 | 33641 ft | 464 kts | 232° |
| 2026-04-22 06:37 | 70.69716 | 64.84015 | 33640 ft | 464 kts | 233° |
| 2026-04-22 06:38 | 70.65685 | 64.68795 | 33650 ft | 463 kts | 233° |
| 2026-04-22 06:38 | 70.61681 | 64.53773 | 33652 ft | 462 kts | 233° |
| 2026-04-22 06:39 | 70.57633 | 64.38701 | 33649 ft | 465 kts | 232° |
| 2026-04-22 06:39 | 70.53550 | 64.23609 | 33644 ft | 465 kts | 232° |
| 2026-04-22 06:40 | 70.49457 | 64.08583 | 33628 ft | 465 kts | 232° |
| 2026-04-22 06:40 | 70.45355 | 63.93632 | 33625 ft | 466 kts | 231° |
| 2026-04-22 06:41 | 70.41232 | 63.78712 | 33635 ft | 465 kts | 231° |
| 2026-04-22 06:41 | 70.37143 | 63.64015 | 33619 ft | 463 kts | 231° |
| 2026-04-22 06:42 | 70.33020 | 63.49298 | 33626 ft | 464 kts | 231° |
| 2026-04-22 06:42 | 70.28870 | 63.34580 | 33618 ft | 465 kts | 231° |
| 2026-04-22 06:43 | 70.24721 | 63.19977 | 33624 ft | 462 kts | 231° |
| 2026-04-22 06:43 | 70.20548 | 63.05386 | 33615 ft | 467 kts | 230° |
| 2026-04-22 06:44 | 70.16328 | 62.90732 | 33625 ft | 469 kts | 231° |
| 2026-04-22 06:44 | 70.12131 | 62.76259 | 33616 ft | 465 kts | 231° |
| 2026-04-22 06:45 | 70.07919 | 62.61828 | 33601 ft | 466 kts | 230° |
| 2026-04-22 06:45 | 70.03676 | 62.47389 | 33617 ft | 468 kts | 230° |
| 2026-04-22 06:46 | 69.99413 | 62.32980 | 33600 ft | 467 kts | 230° |
| 2026-04-22 06:46 | 69.95154 | 62.18666 | 33612 ft | 467 kts | 229° |
| 2026-04-22 06:47 | 69.90883 | 62.04378 | 33612 ft | 467 kts | 230° |
| 2026-04-22 06:47 | 69.86662 | 61.90196 | 33614 ft | 466 kts | 230° |
| 2026-04-22 06:48 | 69.82403 | 61.75965 | 33598 ft | 468 kts | 229° |
| 2026-04-22 06:48 | 69.78071 | 61.61603 | 33613 ft | 477 kts | 229° |
| 2026-04-22 06:49 | 69.74206 | 61.46045 | 33598 ft | 476 kts | 239° |
| 2026-04-22 06:49 | 69.70871 | 61.29700 | 33595 ft | 475 kts | 239° |
| 2026-04-22 06:50 | 69.67475 | 61.13395 | 33596 ft | 474 kts | 238° |
| 2026-04-22 06:50 | 69.64056 | 60.97226 | 33594 ft | 473 kts | 239° |
| 2026-04-22 06:51 | 69.60650 | 60.81248 | 33599 ft | 467 kts | 239° |
| 2026-04-22 06:51 | 69.57268 | 60.65488 | 33593 ft | 462 kts | 238° |
| 2026-04-22 06:52 | 69.53875 | 60.49779 | 33586 ft | 466 kts | 238° |
| 2026-04-22 06:52 | 69.50463 | 60.34062 | 33586 ft | 469 kts | 238° |
| 2026-04-22 06:53 | 69.47026 | 60.18256 | 33577 ft | 468 kts | 238° |
| 2026-04-22 06:53 | 69.43584 | 60.02527 | 33586 ft | 468 kts | 238° |
| 2026-04-22 06:54 | 69.40125 | 59.86833 | 33582 ft | 469 kts | 238° |
| 2026-04-22 06:54 | 69.36637 | 59.71135 | 33561 ft | 470 kts | 238° |
| 2026-04-22 06:55 | 69.33157 | 59.55580 | 33560 ft | 469 kts | 237° |
| 2026-04-22 06:55 | 69.29658 | 59.40054 | 33552 ft | 467 kts | 237° |
| 2026-04-22 06:56 | 69.26744 | 59.27207 | 33578 ft | 468 kts | 237° |
| 2026-04-22 06:56 | 69.23216 | 59.11739 | 33582 ft | 468 kts | 237° |
| 2026-04-22 06:57 | 69.19679 | 58.96355 | 33574 ft | 467 kts | 237° |
| 2026-04-22 06:57 | 69.16037 | 58.81200 | 33567 ft | 467 kts | 235° |
| 2026-04-22 06:58 | 69.12363 | 58.66276 | 33558 ft | 466 kts | 235° |
| 2026-04-22 06:58 | 69.08665 | 58.51279 | 33555 ft | 469 kts | 235° |
| 2026-04-22 06:59 | 69.04941 | 58.36220 | 33555 ft | 471 kts | 235° |
| 2026-04-22 06:59 | 69.01217 | 58.21253 | 33552 ft | 472 kts | 235° |
| 2026-04-22 07:00 | 68.97455 | 58.06240 | 33548 ft | 472 kts | 234° |
| 2026-04-22 07:00 | 68.93689 | 57.91302 | 33551 ft | 469 kts | 234° |
| 2026-04-22 07:01 | 68.89931 | 57.76469 | 33536 ft | 469 kts | 235° |
| 2026-04-22 07:01 | 68.86247 | 57.61516 | 33547 ft | 469 kts | 235° |
| 2026-04-22 07:02 | 68.82572 | 57.46574 | 33541 ft | 470 kts | 235° |
| 2026-04-22 07:02 | 68.78862 | 57.31659 | 33538 ft | 472 kts | 235° |
| 2026-04-22 07:03 | 68.75129 | 57.16775 | 33515 ft | 471 kts | 235° |
| 2026-04-22 07:03 | 68.71422 | 57.02097 | 33525 ft | 469 kts | 235° |
| 2026-04-22 07:04 | 68.67687 | 56.87338 | 33536 ft | 469 kts | 235° |
| 2026-04-22 07:04 | 68.63961 | 56.72642 | 33526 ft | 469 kts | 235° |
| 2026-04-22 07:05 | 68.60231 | 56.58017 | 33530 ft | 470 kts | 235° |
| 2026-04-22 07:05 | 68.56465 | 56.43360 | 33518 ft | 469 kts | 234° |
| 2026-04-22 07:06 | 68.52704 | 56.28822 | 33511 ft | 469 kts | 234° |
| 2026-04-22 07:06 | 68.48925 | 56.14310 | 33518 ft | 469 kts | 234° |
| 2026-04-22 07:07 | 68.45138 | 55.99868 | 33514 ft | 468 kts | 234° |
| 2026-04-22 07:07 | 68.41324 | 55.85413 | 33507 ft | 469 kts | 234° |
| 2026-04-22 07:08 | 68.37529 | 55.71129 | 33508 ft | 469 kts | 234° |
| 2026-04-22 07:08 | 68.33706 | 55.56831 | 33505 ft | 469 kts | 234° |
| 2026-04-22 07:09 | 68.29855 | 55.42518 | 33501 ft | 469 kts | 234° |
| 2026-04-22 07:09 | 68.26026 | 55.28383 | 33490 ft | 469 kts | 233° |
| 2026-04-22 07:10 | 68.22147 | 55.14144 | 33490 ft | 470 kts | 233° |
| 2026-04-22 07:10 | 68.18272 | 55.00016 | 33486 ft | 470 kts | 233° |
| 2026-04-22 07:11 | 68.14400 | 54.85999 | 33499 ft | 470 kts | 233° |
| 2026-04-22 07:11 | 68.10487 | 54.71911 | 33512 ft | 470 kts | 233° |
| 2026-04-22 07:12 | 68.06574 | 54.57900 | 33483 ft | 470 kts | 233° |
| 2026-04-22 07:12 | 68.02647 | 54.43922 | 33492 ft | 470 kts | 233° |
| 2026-04-22 07:13 | 67.98710 | 54.29997 | 33487 ft | 469 kts | 233° |
| 2026-04-22 07:13 | 67.94761 | 54.16104 | 33485 ft | 470 kts | 233° |
| 2026-04-22 07:14 | 67.90794 | 54.02261 | 33485 ft | 470 kts | 232° |
| 2026-04-22 07:14 | 67.86820 | 53.88615 | 33478 ft | 470 kts | 232° |
| 2026-04-22 07:15 | 67.82802 | 53.74919 | 33478 ft | 471 kts | 232° |
| 2026-04-22 07:15 | 67.78772 | 53.61240 | 33481 ft | 472 kts | 232° |
| 2026-04-22 07:16 | 67.74715 | 53.47544 | 33478 ft | 472 kts | 232° |
| 2026-04-22 07:16 | 67.70659 | 53.33933 | 33478 ft | 472 kts | 232° |
| 2026-04-22 07:17 | 67.66590 | 53.20355 | 33469 ft | 472 kts | 231° |
| 2026-04-22 07:17 | 67.62306 | 53.07282 | 33466 ft | 472 kts | 224° |
| 2026-04-22 07:18 | 67.57439 | 52.95845 | 33467 ft | 472 kts | 222° |
| 2026-04-22 07:18 | 67.52537 | 52.84351 | 33465 ft | 473 kts | 222° |
| 2026-04-22 07:19 | 67.47643 | 52.72823 | 33463 ft | 473 kts | 222° |
| 2026-04-22 07:19 | 67.42778 | 52.61404 | 33462 ft | 473 kts | 222° |
| 2026-04-22 07:20 | 67.37875 | 52.49965 | 33461 ft | 474 kts | 222° |
| 2026-04-22 07:20 | 67.32956 | 52.38553 | 33458 ft | 474 kts | 222° |
| 2026-04-22 07:21 | 67.28012 | 52.27181 | 33456 ft | 475 kts | 221° |
| 2026-04-22 07:21 | 67.23052 | 52.15891 | 33453 ft | 475 kts | 221° |
| 2026-04-22 07:22 | 67.18081 | 52.04627 | 33437 ft | 476 kts | 221° |
| 2026-04-22 07:22 | 67.13100 | 51.93391 | 33438 ft | 475 kts | 221° |
| 2026-04-22 07:23 | 67.08126 | 51.82231 | 33449 ft | 475 kts | 221° |
| 2026-04-22 07:23 | 67.03127 | 51.71076 | 33431 ft | 475 kts | 221° |
| 2026-04-22 07:24 | 66.98168 | 51.60068 | 33432 ft | 475 kts | 221° |
| 2026-04-22 07:24 | 66.93168 | 51.48992 | 33414 ft | 475 kts | 221° |
| 2026-04-22 07:25 | 66.88191 | 51.37943 | 33434 ft | 475 kts | 221° |
| 2026-04-22 07:25 | 66.83197 | 51.26904 | 33430 ft | 475 kts | 221° |
| 2026-04-22 07:26 | 66.78195 | 51.15916 | 33437 ft | 476 kts | 221° |
| 2026-04-22 07:26 | 66.73200 | 51.05012 | 33435 ft | 476 kts | 221° |
| 2026-04-22 07:27 | 66.68170 | 50.94092 | 33434 ft | 477 kts | 221° |
| 2026-04-22 07:27 | 66.63128 | 50.83206 | 33431 ft | 476 kts | 221° |
| 2026-04-22 07:28 | 66.55551 | 50.66963 | 33420 ft | 476 kts | 220° |
| 2026-04-22 07:28 | 66.50502 | 50.56213 | 33424 ft | 476 kts | 220° |
| 2026-04-22 07:29 | 66.45476 | 50.45570 | 33428 ft | 476 kts | 220° |
| 2026-04-22 07:29 | 66.40414 | 50.34909 | 33432 ft | 475 kts | 220° |
| 2026-04-22 07:30 | 66.35344 | 50.24290 | 33417 ft | 475 kts | 220° |
| 2026-04-22 07:30 | 66.30274 | 50.13729 | 33424 ft | 476 kts | 220° |
| 2026-04-22 07:31 | 66.25182 | 50.03178 | 33427 ft | 477 kts | 220° |
| 2026-04-22 07:31 | 66.20074 | 49.92653 | 33416 ft | 477 kts | 220° |
| 2026-04-22 07:32 | 66.14983 | 49.82220 | 33416 ft | 478 kts | 220° |
| 2026-04-22 07:32 | 66.09853 | 49.71762 | 33417 ft | 478 kts | 220° |
| 2026-04-22 07:33 | 66.04716 | 49.61348 | 33416 ft | 478 kts | 220° |
| 2026-04-22 07:33 | 65.99561 | 49.50951 | 33423 ft | 479 kts | 220° |
| 2026-04-22 07:34 | 65.94399 | 49.40595 | 33426 ft | 479 kts | 219° |
| 2026-04-22 07:34 | 65.89258 | 49.30334 | 33420 ft | 479 kts | 219° |
| 2026-04-22 07:35 | 65.84071 | 49.20031 | 33419 ft | 479 kts | 219° |
| 2026-04-22 07:35 | 65.78884 | 49.09767 | 33411 ft | 479 kts | 220° |
| 2026-04-22 07:36 | 65.73705 | 48.99535 | 33426 ft | 479 kts | 220° |
| 2026-04-22 07:36 | 65.68513 | 48.89323 | 33406 ft | 480 kts | 220° |
| 2026-04-22 07:37 | 65.63346 | 48.79220 | 33413 ft | 480 kts | 219° |
| 2026-04-22 07:37 | 65.58146 | 48.69076 | 33413 ft | 479 kts | 219° |
| 2026-04-22 07:38 | 65.52956 | 48.58975 | 33403 ft | 479 kts | 220° |
| 2026-04-22 07:38 | 65.47754 | 48.48896 | 33419 ft | 479 kts | 219° |
| 2026-04-22 07:39 | 65.42544 | 48.38860 | 33417 ft | 480 kts | 219° |
| 2026-04-22 07:39 | 65.37358 | 48.28923 | 33414 ft | 480 kts | 219° |
| 2026-04-22 07:40 | 65.32128 | 48.18951 | 33413 ft | 480 kts | 219° |
| 2026-04-22 07:40 | 65.26901 | 48.09039 | 33405 ft | 480 kts | 219° |
| 2026-04-22 07:41 | 65.21667 | 47.99164 | 33407 ft | 480 kts | 219° |
| 2026-04-22 07:41 | 65.16421 | 47.89315 | 33401 ft | 480 kts | 219° |
| 2026-04-22 07:42 | 65.11169 | 47.79500 | 33401 ft | 480 kts | 219° |
| 2026-04-22 07:42 | 65.05913 | 47.69742 | 33397 ft | 480 kts | 219° |
| 2026-04-22 07:43 | 65.00678 | 47.60085 | 33405 ft | 480 kts | 219° |
| 2026-04-22 07:43 | 64.95411 | 47.50408 | 33396 ft | 479 kts | 219° |
| 2026-04-22 07:44 | 64.91032 | 47.42395 | 33400 ft | 479 kts | 219° |
| 2026-04-22 07:44 | 64.85762 | 47.32794 | 33403 ft | 478 kts | 219° |
| 2026-04-22 07:45 | 64.80484 | 47.23227 | 33400 ft | 478 kts | 219° |
| 2026-04-22 07:45 | 64.75236 | 47.13755 | 33395 ft | 478 kts | 219° |
| 2026-04-22 07:46 | 64.69952 | 47.04279 | 33400 ft | 478 kts | 219° |
| 2026-04-22 07:46 | 64.64657 | 46.94857 | 33395 ft | 478 kts | 219° |
| 2026-04-22 07:47 | 64.59356 | 46.85464 | 33398 ft | 478 kts | 219° |
| 2026-04-22 07:47 | 64.54091 | 46.76175 | 33387 ft | 478 kts | 219° |
| 2026-04-22 07:48 | 64.48780 | 46.66845 | 33388 ft | 479 kts | 219° |
| 2026-04-22 07:48 | 64.43456 | 46.57540 | 33394 ft | 479 kts | 218° |
| 2026-04-22 07:49 | 64.38113 | 46.48248 | 33397 ft | 480 kts | 218° |
| 2026-04-22 07:49 | 64.32805 | 46.39061 | 33396 ft | 480 kts | 218° |
| 2026-04-22 07:50 | 64.27450 | 46.29840 | 33392 ft | 480 kts | 218° |
| 2026-04-22 07:50 | 64.22091 | 46.20653 | 33379 ft | 480 kts | 218° |
| 2026-04-22 07:51 | 64.16740 | 46.11525 | 33388 ft | 479 kts | 218° |
| 2026-04-22 07:51 | 64.11377 | 46.02451 | 33390 ft | 478 kts | 218° |
| 2026-04-22 07:52 | 64.06010 | 45.93431 | 33404 ft | 478 kts | 218° |
| 2026-04-22 07:52 | 64.00640 | 45.84439 | 33397 ft | 478 kts | 218° |
| 2026-04-22 07:53 | 63.95284 | 45.75508 | 33398 ft | 478 kts | 218° |
| 2026-04-22 07:53 | 63.89924 | 45.66612 | 33398 ft | 478 kts | 218° |
| 2026-04-22 07:54 | 63.84525 | 45.57695 | 33395 ft | 478 kts | 218° |
| 2026-04-22 07:54 | 63.79147 | 45.48851 | 33391 ft | 478 kts | 217° |
| 2026-04-22 07:55 | 63.73771 | 45.40051 | 33396 ft | 479 kts | 218° |
| 2026-04-22 07:55 | 63.68373 | 45.31310 | 33393 ft | 479 kts | 216° |
| 2026-04-22 07:56 | 63.62837 | 45.22868 | 33387 ft | 480 kts | 215° |
| 2026-04-22 07:56 | 63.57305 | 45.14568 | 33400 ft | 480 kts | 216° |
| 2026-04-22 07:57 | 63.51745 | 45.06194 | 33397 ft | 480 kts | 216° |
| 2026-04-22 07:57 | 63.46221 | 44.97880 | 33401 ft | 480 kts | 216° |
| 2026-04-22 07:58 | 63.40656 | 44.89540 | 33377 ft | 480 kts | 216° |
| 2026-04-22 07:58 | 63.35114 | 44.81278 | 33393 ft | 480 kts | 216° |
| 2026-04-22 07:59 | 63.29550 | 44.73057 | 33403 ft | 480 kts | 216° |
| 2026-04-22 07:59 | 63.23989 | 44.64885 | 33400 ft | 480 kts | 216° |
| 2026-04-22 08:00 | 63.18399 | 44.56702 | 33393 ft | 481 kts | 216° |
| 2026-04-22 08:00 | 63.12836 | 44.48591 | 33414 ft | 481 kts | 215° |
| 2026-04-22 08:01 | 63.07223 | 44.40443 | 33423 ft | 481 kts | 215° |
| 2026-04-22 08:01 | 63.01650 | 44.32392 | 33418 ft | 482 kts | 215° |
| 2026-04-22 08:02 | 62.96043 | 44.24330 | 33427 ft | 482 kts | 215° |
| 2026-04-22 08:02 | 62.90400 | 44.16253 | 33407 ft | 482 kts | 215° |
| 2026-04-22 08:03 | 62.84806 | 44.08283 | 33418 ft | 482 kts | 215° |
| 2026-04-22 08:03 | 62.79162 | 44.00278 | 33422 ft | 482 kts | 215° |
| 2026-04-22 08:04 | 62.73549 | 43.92353 | 33433 ft | 482 kts | 215° |
| 2026-04-22 08:04 | 62.67909 | 43.84426 | 33431 ft | 482 kts | 215° |
| 2026-04-22 08:05 | 62.62280 | 43.76546 | 33420 ft | 482 kts | 215° |
| 2026-04-22 08:05 | 62.56617 | 43.68661 | 33428 ft | 483 kts | 215° |
| 2026-04-22 08:06 | 62.50961 | 43.60811 | 33434 ft | 483 kts | 215° |
| 2026-04-22 08:06 | 62.45304 | 43.52986 | 33431 ft | 483 kts | 215° |
| 2026-04-22 08:07 | 62.39630 | 43.45171 | 33433 ft | 483 kts | 215° |
| 2026-04-22 08:07 | 62.33979 | 43.37424 | 33425 ft | 483 kts | 215° |
| 2026-04-22 08:08 | 62.28306 | 43.29681 | 33444 ft | 484 kts | 215° |
| 2026-04-22 08:08 | 62.22598 | 43.21925 | 33443 ft | 484 kts | 215° |
| 2026-04-22 08:09 | 62.16911 | 43.14234 | 33442 ft | 485 kts | 215° |
| 2026-04-22 08:09 | 62.11218 | 43.06569 | 33443 ft | 484 kts | 214° |
| 2026-04-22 08:10 | 62.05494 | 42.98897 | 33447 ft | 484 kts | 215° |
| 2026-04-22 08:10 | 61.99801 | 42.91300 | 33452 ft | 484 kts | 215° |
| 2026-04-22 08:11 | 61.94082 | 42.83703 | 33456 ft | 484 kts | 214° |
| 2026-04-22 08:11 | 61.88392 | 42.76175 | 33471 ft | 484 kts | 214° |
| 2026-04-22 08:12 | 61.82656 | 42.68624 | 33449 ft | 484 kts | 215° |
| 2026-04-22 08:12 | 61.76984 | 42.61189 | 33460 ft | 484 kts | 214° |
| 2026-04-22 08:13 | 61.71249 | 42.53704 | 33483 ft | 484 kts | 214° |
| 2026-04-22 08:13 | 61.65498 | 42.46227 | 33481 ft | 484 kts | 214° |
| 2026-04-22 08:14 | 61.59786 | 42.38831 | 33479 ft | 484 kts | 214° |
| 2026-04-22 08:14 | 61.54032 | 42.31416 | 33472 ft | 484 kts | 214° |
| 2026-04-22 08:15 | 61.48339 | 42.23982 | 33468 ft | 484 kts | 215° |
| 2026-04-22 08:15 | 61.42617 | 42.16472 | 33486 ft | 485 kts | 215° |
| 2026-04-22 08:16 | 61.36894 | 42.09001 | 33481 ft | 485 kts | 215° |
| 2026-04-22 08:16 | 61.31150 | 42.01548 | 33489 ft | 486 kts | 215° |
| 2026-04-22 08:17 | 61.25433 | 41.94170 | 33492 ft | 486 kts | 215° |
| 2026-04-22 08:17 | 61.19678 | 41.86771 | 33496 ft | 487 kts | 214° |
| 2026-04-22 08:18 | 61.13908 | 41.79390 | 33501 ft | 487 kts | 214° |
| 2026-04-22 08:18 | 61.08140 | 41.72039 | 33497 ft | 486 kts | 214° |
| 2026-04-22 08:19 | 61.02372 | 41.64720 | 33488 ft | 486 kts | 214° |
| 2026-04-22 08:19 | 60.96635 | 41.57470 | 33504 ft | 486 kts | 214° |
| 2026-04-22 08:20 | 60.90855 | 41.50194 | 33526 ft | 487 kts | 214° |
| 2026-04-22 08:20 | 60.85056 | 41.42926 | 33521 ft | 487 kts | 214° |
| 2026-04-22 08:21 | 60.79300 | 41.35740 | 33529 ft | 487 kts | 214° |
| 2026-04-22 08:21 | 60.73506 | 41.28524 | 33522 ft | 487 kts | 214° |
| 2026-04-22 08:22 | 60.67701 | 41.21318 | 33539 ft | 488 kts | 214° |
| 2026-04-22 08:22 | 60.61891 | 41.14135 | 33543 ft | 488 kts | 214° |
| 2026-04-22 08:23 | 60.56073 | 41.06972 | 33551 ft | 488 kts | 214° |
| 2026-04-22 08:23 | 60.50287 | 40.99880 | 33543 ft | 489 kts | 214° |
| 2026-04-22 08:24 | 60.44446 | 40.92811 | 33555 ft | 489 kts | 214° |
| 2026-04-22 08:24 | 60.38581 | 40.85812 | 33560 ft | 489 kts | 214° |
| 2026-04-22 08:25 | 60.32746 | 40.78855 | 33580 ft | 489 kts | 214° |
| 2026-04-22 08:25 | 60.26876 | 40.71883 | 33587 ft | 489 kts | 213° |
| 2026-04-22 08:26 | 60.20994 | 40.64956 | 33572 ft | 489 kts | 213° |
| 2026-04-22 08:26 | 60.15106 | 40.58052 | 33584 ft | 489 kts | 213° |
| 2026-04-22 08:27 | 60.09252 | 40.51209 | 33594 ft | 489 kts | 213° |
| 2026-04-22 08:27 | 60.03356 | 40.44341 | 33602 ft | 490 kts | 213° |
| 2026-04-22 08:28 | 59.97450 | 40.37489 | 33582 ft | 490 kts | 213° |
| 2026-04-22 08:28 | 59.91556 | 40.30680 | 33607 ft | 490 kts | 213° |
| 2026-04-22 08:29 | 59.85642 | 40.23873 | 33616 ft | 491 kts | 213° |
| 2026-04-22 08:29 | 59.79753 | 40.17123 | 33617 ft | 491 kts | 213° |
| 2026-04-22 08:30 | 59.73780 | 40.10523 | 33623 ft | 492 kts | 212° |
| 2026-04-22 08:30 | 59.67775 | 40.03959 | 33625 ft | 492 kts | 212° |
| 2026-04-22 08:31 | 59.61809 | 39.97413 | 33631 ft | 492 kts | 212° |
| 2026-04-22 08:32 | 59.52811 | 39.87571 | 33645 ft | 492 kts | 212° |
| 2026-04-22 08:32 | 59.47757 | 39.82372 | 33644 ft | 494 kts | 207° |
| 2026-04-22 08:33 | 59.40445 | 39.75985 | 33638 ft | 494 kts | 207° |
| 2026-04-22 08:33 | 59.35215 | 39.71393 | 33645 ft | 495 kts | 207° |
| 2026-04-22 08:34 | 59.27899 | 39.64936 | 33661 ft | 495 kts | 207° |
| 2026-04-22 08:34 | 59.22849 | 39.59586 | 33664 ft | 490 kts | 217° |
| 2026-04-22 08:35 | 59.17385 | 39.51682 | 33644 ft | 489 kts | 219° |
| 2026-04-22 08:35 | 59.11904 | 39.43921 | 33667 ft | 490 kts | 219° |
| 2026-04-22 08:36 | 59.06330 | 39.36173 | 33682 ft | 493 kts | 218° |
| 2026-04-22 08:36 | 59.00727 | 39.28396 | 33685 ft | 494 kts | 218° |
| 2026-04-22 08:37 | 58.95177 | 39.20703 | 33676 ft | 494 kts | 218° |
| 2026-04-22 08:37 | 58.89564 | 39.12946 | 33682 ft | 493 kts | 218° |
| 2026-04-22 08:38 | 58.83993 | 39.05283 | 33688 ft | 494 kts | 218° |
| 2026-04-22 08:38 | 58.78364 | 38.97552 | 33690 ft | 494 kts | 218° |
| 2026-04-22 08:39 | 58.72784 | 38.89898 | 33708 ft | 495 kts | 218° |
| 2026-04-22 08:39 | 58.67089 | 38.82407 | 33709 ft | 496 kts | 215° |
| 2026-04-22 08:40 | 58.61278 | 38.75350 | 33706 ft | 496 kts | 214° |
| 2026-04-22 08:40 | 58.55428 | 38.68282 | 33718 ft | 496 kts | 215° |
| 2026-04-22 08:41 | 58.49601 | 38.61176 | 33718 ft | 496 kts | 215° |
| 2026-04-22 08:41 | 58.43817 | 38.54110 | 33709 ft | 496 kts | 215° |
| 2026-04-22 08:42 | 58.37990 | 38.47016 | 33723 ft | 496 kts | 215° |
| 2026-04-22 08:42 | 58.32179 | 38.39975 | 33719 ft | 497 kts | 214° |
| 2026-04-22 08:43 | 58.26323 | 38.32915 | 33722 ft | 497 kts | 214° |
| 2026-04-22 08:43 | 58.20126 | 38.27143 | 33703 ft | 501 kts | 202° |
| 2026-04-22 08:43 | 58.16788 | 38.25160 | 33550 ft | 501 kts | 197° |
| 2026-04-22 08:44 | 58.13410 | 38.23439 | 33173 ft | 502 kts | 196° |
| 2026-04-22 08:44 | 58.10018 | 38.21732 | 32711 ft | 505 kts | 197° |
| 2026-04-22 08:44 | 58.06606 | 38.20005 | 32216 ft | 508 kts | 197° |
| 2026-04-22 08:44 | 58.03229 | 38.18277 | 31746 ft | 511 kts | 197° |
| 2026-04-22 08:45 | 57.99789 | 38.16499 | 31268 ft | 513 kts | 197° |
| 2026-04-22 08:45 | 57.96333 | 38.14703 | 30818 ft | 515 kts | 197° |
| 2026-04-22 08:45 | 57.92868 | 38.12898 | 30341 ft | 517 kts | 197° |
| 2026-04-22 08:45 | 57.89405 | 38.11095 | 29747 ft | 515 kts | 197° |
| 2026-04-22 08:46 | 57.85974 | 38.09315 | 29117 ft | 509 kts | 197° |
| 2026-04-22 08:46 | 57.82577 | 38.07557 | 28532 ft | 502 kts | 197° |
| 2026-04-22 08:46 | 57.79226 | 38.05827 | 27967 ft | 496 kts | 197° |
| 2026-04-22 08:46 | 57.75918 | 38.04123 | 27425 ft | 491 kts | 197° |
| 2026-04-22 08:47 | 57.72637 | 38.02436 | 26869 ft | 485 kts | 197° |
| 2026-04-22 08:47 | 57.69400 | 38.00774 | 26320 ft | 481 kts | 197° |
| 2026-04-22 08:47 | 57.66183 | 37.99126 | 25775 ft | 476 kts | 196° |
| 2026-04-22 08:47 | 57.63004 | 37.97499 | 25238 ft | 472 kts | 196° |
| 2026-04-22 08:48 | 57.59835 | 37.95878 | 24644 ft | 472 kts | 196° |
| 2026-04-22 08:48 | 57.56651 | 37.94251 | 24210 ft | 474 kts | 196° |
| 2026-04-22 08:48 | 57.53475 | 37.92634 | 23846 ft | 472 kts | 196° |
| 2026-04-22 08:48 | 57.50368 | 37.91056 | 23351 ft | 468 kts | 196° |
| 2026-04-22 08:49 | 57.47234 | 37.89468 | 22729 ft | 464 kts | 196° |
| 2026-04-22 08:49 | 57.44131 | 37.87899 | 22182 ft | 459 kts | 196° |
| 2026-04-22 08:49 | 57.41065 | 37.86353 | 21656 ft | 454 kts | 196° |
| 2026-04-22 08:49 | 57.38029 | 37.84821 | 21110 ft | 449 kts | 196° |
| 2026-04-22 08:50 | 57.35029 | 37.83312 | 20614 ft | 445 kts | 196° |
| 2026-04-22 08:50 | 57.32055 | 37.81818 | 20071 ft | 441 kts | 195° |
| 2026-04-22 08:50 | 57.29100 | 37.80335 | 19567 ft | 438 kts | 195° |
| 2026-04-22 08:50 | 57.26163 | 37.78863 | 19065 ft | 434 kts | 195° |
| 2026-04-22 08:51 | 57.23258 | 37.77409 | 18561 ft | 432 kts | 195° |
| 2026-04-22 08:51 | 57.20422 | 37.75993 | 18356 ft | 421 kts | 195° |
| 2026-04-22 08:51 | 57.17631 | 37.74601 | 18185 ft | 410 kts | 195° |
| 2026-04-22 08:51 | 57.14896 | 37.73240 | 17997 ft | 400 kts | 195° |
| 2026-04-22 08:52 | 57.12259 | 37.71931 | 17816 ft | 390 kts | 195° |
| 2026-04-22 08:52 | 57.09652 | 37.70784 | 17528 ft | 382 kts | 189° |
| 2026-04-22 08:52 | 57.07022 | 37.70211 | 17161 ft | 378 kts | 184° |
| 2026-04-22 08:52 | 57.04410 | 37.69909 | 16787 ft | 374 kts | 182° |
| 2026-04-22 08:53 | 57.01819 | 37.69670 | 16404 ft | 371 kts | 182° |
| 2026-04-22 08:53 | 56.99261 | 37.69421 | 16060 ft | 367 kts | 183° |
| 2026-04-22 08:53 | 56.96708 | 37.69142 | 15689 ft | 363 kts | 183° |
| 2026-04-22 08:53 | 56.94222 | 37.68843 | 15361 ft | 360 kts | 184° |
| 2026-04-22 08:54 | 56.91737 | 37.68525 | 15008 ft | 357 kts | 184° |
| 2026-04-22 08:54 | 56.89268 | 37.68197 | 14663 ft | 353 kts | 184° |
| 2026-04-22 08:54 | 56.86817 | 37.67863 | 14318 ft | 350 kts | 184° |
| 2026-04-22 08:54 | 56.84387 | 37.67528 | 13981 ft | 348 kts | 185° |
| 2026-04-22 08:55 | 56.82005 | 37.67193 | 13666 ft | 346 kts | 185° |
| 2026-04-22 08:55 | 56.79607 | 37.66865 | 13284 ft | 344 kts | 185° |
| 2026-04-22 08:55 | 56.77227 | 37.66540 | 12913 ft | 341 kts | 185° |
| 2026-04-22 08:55 | 56.74871 | 37.66217 | 12578 ft | 337 kts | 185° |
| 2026-04-22 08:56 | 56.72540 | 37.65896 | 12248 ft | 333 kts | 185° |
| 2026-04-22 08:56 | 56.70265 | 37.65580 | 11930 ft | 331 kts | 185° |
| 2026-04-22 08:56 | 56.67967 | 37.65258 | 11593 ft | 329 kts | 186° |
| 2026-04-22 08:56 | 56.65710 | 37.64836 | 11488 ft | 325 kts | 185° |
| 2026-04-22 08:57 | 56.63426 | 37.64524 | 11157 ft | 332 kts | 184° |
| 2026-04-22 08:57 | 56.61120 | 37.64251 | 10896 ft | 330 kts | 184° |
| 2026-04-22 08:57 | 56.58835 | 37.63988 | 10572 ft | 327 kts | 182° |
| 2026-04-22 08:57 | 56.56576 | 37.63755 | 10234 ft | 324 kts | 184° |
| 2026-04-22 08:58 | 56.54334 | 37.63447 | 9944 ft | 321 kts | 185° |
| 2026-04-22 08:58 | 56.52154 | 37.63136 | 9731 ft | 316 kts | 184° |
| 2026-04-22 08:58 | 56.49994 | 37.62817 | 9545 ft | 303 kts | 185° |
| 2026-04-22 08:58 | 56.47934 | 37.62485 | 9217 ft | 293 kts | 184° |
| 2026-04-22 08:59 | 56.45913 | 37.62217 | 8873 ft | 291 kts | 184° |
| 2026-04-22 08:59 | 56.43921 | 37.61959 | 8559 ft | 289 kts | 184° |
| 2026-04-22 08:59 | 56.41924 | 37.61700 | 8241 ft | 287 kts | 184° |
| 2026-04-22 08:59 | 56.39933 | 37.61437 | 7908 ft | 286 kts | 184° |
| 2026-04-22 09:00 | 56.37943 | 37.61167 | 7565 ft | 284 kts | 185° |
| 2026-04-22 09:00 | 56.36001 | 37.60911 | 7353 ft | 274 kts | 185° |
| 2026-04-22 09:00 | 56.34155 | 37.60661 | 7108 ft | 263 kts | 185° |
| 2026-04-22 09:00 | 56.32351 | 37.60414 | 6756 ft | 257 kts | 185° |
| 2026-04-22 09:01 | 56.30582 | 37.60175 | 6410 ft | 252 kts | 185° |
| 2026-04-22 09:01 | 56.28822 | 37.59939 | 6135 ft | 253 kts | 185° |
| 2026-04-22 09:01 | 56.27080 | 37.59705 | 5831 ft | 255 kts | 185° |
| 2026-04-22 09:01 | 56.25307 | 37.59466 | 5489 ft | 254 kts | 185° |
| 2026-04-22 09:02 | 56.23544 | 37.59227 | 5207 ft | 253 kts | 185° |
| 2026-04-22 09:02 | 56.21827 | 37.58998 | 5103 ft | 242 kts | 185° |
| 2026-04-22 09:02 | 56.20177 | 37.58830 | 4999 ft | 241 kts | 185° |
| 2026-04-22 09:02 | 56.18473 | 37.58577 | 4752 ft | 247 kts | 186° |
| 2026-04-22 09:03 | 56.16753 | 37.58343 | 4558 ft | 246 kts | 185° |
| 2026-04-22 09:03 | 56.15061 | 37.58132 | 4297 ft | 242 kts | 185° |
| 2026-04-22 09:03 | 56.13387 | 37.57939 | 4004 ft | 241 kts | 185° |
| 2026-04-22 09:03 | 56.11726 | 37.57734 | 3746 ft | 237 kts | 185° |
| 2026-04-22 09:04 | 56.10098 | 37.57532 | 3533 ft | 232 kts | 186° |
| 2026-04-22 09:04 | 56.08517 | 37.57345 | 3289 ft | 228 kts | 185° |
| 2026-04-22 09:04 | 56.06933 | 37.57123 | 3015 ft | 226 kts | 186° |
| 2026-04-22 09:04 | 56.05428 | 37.56930 | 2837 ft | 207 kts | 186° |
| 2026-04-22 09:05 | 56.04047 | 37.56693 | 2580 ft | 190 kts | 186° |
| 2026-04-22 09:05 | 56.02778 | 37.56546 | 2418 ft | 176 kts | 185° |
| 2026-04-22 09:05 | 56.01580 | 37.56426 | 2285 ft | 171 kts | 185° |
| 2026-04-22 09:05 | 56.00410 | 37.56239 | 2195 ft | 165 kts | 197° |
| 2026-04-22 09:06 | 55.99554 | 37.55111 | 2191 ft | 155 kts | 240° |
| 2026-04-22 09:06 | 55.99019 | 37.53389 | 2148 ft | 166 kts | 240° |
| 2026-04-22 09:06 | 55.98524 | 37.51554 | 1900 ft | 154 kts | 252° |
| 2026-04-22 09:06 | 55.98253 | 37.49752 | 1559 ft | 151 kts | 258° |
| 2026-04-22 09:07 | 55.98042 | 37.47923 | 1219 ft | 151 kts | 261° |
| 2026-04-22 09:07 | 55.97816 | 37.46093 | 925 ft | 150 kts | 257° |
| 2026-04-22 09:07 | 55.97556 | 37.44295 | 694 ft | 148 kts | 256° |
| 2026-04-22 09:07 | 55.97306 | 37.42597 | 648 ft | 133 kts | 258° |
| 2026-04-22 09:08 | 55.97107 | 37.41249 | 648 ft | 90 kts | 255° |
| 2026-04-22 09:08 | 55.96998 | 37.40502 | 651 ft | 50 kts | 256° |
| 2026-04-22 09:08 | 55.96953 | 37.40186 | 648 ft | 15 kts | 256° |
| 2026-04-22 09:08 | 55.97003 | 37.40046 | 652 ft | 16 kts | 337° |
| 2026-04-22 09:09 | 55.97108 | 37.39987 | 650 ft | 16 kts | 344° |
| 2026-04-22 09:09 | 55.97225 | 37.39929 | 642 ft | 18 kts | 345° |
| 2026-04-22 09:09 | 55.97339 | 37.39941 | 646 ft | 18 kts | 51° |
| 2026-04-22 09:09 | 55.97380 | 37.40145 | 645 ft | 18 kts | 75° |
| 2026-04-22 09:10 | 55.97411 | 37.40358 | 644 ft | 18 kts | 75° |
| 2026-04-22 09:10 | 55.97442 | 37.40568 | 647 ft | 18 kts | 75° |
| 2026-04-22 09:10 | 55.97473 | 37.40777 | 648 ft | 18 kts | 74° |
| 2026-04-22 09:10 | 55.97506 | 37.40987 | 645 ft | 18 kts | 74° |
| 2026-04-22 09:11 | 55.97538 | 37.41198 | 648 ft | 18 kts | 75° |
| 2026-04-22 09:11 | 55.97569 | 37.41406 | 649 ft | 18 kts | 75° |
| 2026-04-22 09:11 | 55.97594 | 37.41568 | 647 ft | 8 kts | 63° |
| 2026-04-22 09:11 | 55.97649 | 37.41588 | 646 ft | 9 kts | 352° |
| 2026-04-22 09:12 | 55.97707 | 37.41568 | 650 ft | 9 kts | 347° |
| 2026-04-22 09:12 | 55.97765 | 37.41540 | 649 ft | 9 kts | 344° |
| 2026-04-22 09:12 | 55.97822 | 37.41511 | 645 ft | 9 kts | 344° |
| 2026-04-22 09:12 | 55.97870 | 37.41506 | 648 ft | 6 kts | 24° |
| 2026-04-22 09:13 | 55.97888 | 37.41570 | 646 ft | 6 kts | 75° |
| 2026-04-22 09:13 | 55.97899 | 37.41643 | 645 ft | 2 kts | 75° |